Observation data for Palo Duro Canyon State Park Rim on 01/19/2019      Previous  Date  Next       Current Mesonet Observations  Soil Data  Daily Summary Page  Observations in Plain Language
KPD1 190600Z 34023G32KT M00/M03 A3005 RMK A01 T10011027  RH  083%=      5-min Rain = 0
KPD1 190601Z 35019G28KT M00/M03 A3005 RMK A01 T10021028  RH  082%=      5-min Rain = 0
KPD1 190602Z 34022G27KT M00/M03 A3005 RMK A01 T10021029  RH  082%=      5-min Rain = 0
KPD1 190603Z 34024G30KT M00/M03 A3005 RMK A01 T10021029  RH  082%=      5-min Rain = 0
KPD1 190604Z 34020KT M00/M03 A3005 RMK A01 T10021029  RH  082%=      5-min Rain = 0
KPD1 190605Z 34024G32KT M00/M03 A3005 RMK A01 T10021029  RH  082%=      5-min Rain = 0
KPD1 190606Z 34017G25KT M00/M03 A3005 RMK A01 T10021029  RH  082%=      5-min Rain = 0
KPD1 190607Z 34024G32KT M00/M03 A3005 RMK A01 T10021029  RH  082%=      5-min Rain = 0
KPD1 190608Z 34023G29KT M00/M03 A3005 RMK A01 T10011029  RH  082%=      5-min Rain = 0
KPD1 190609Z 35023G29KT M00/M03 A3005 RMK A01 T10011029  RH  082%=      5-min Rain = 0
KPD1 190610Z 34017G23KT M00/M03 A3006 RMK A01 T10011029  RH  082%=      5-min Rain = 0
KPD1 190611Z 34019G25KT M00/M03 A3006 RMK A01 T10021029  RH  082%=      5-min Rain = 0
KPD1 190612Z 34015KT M00/M03 A3006 RMK A01 T10011028  RH  082%=      5-min Rain = 0
KPD1 190613Z 34012G17KT M00/M03 A3006 RMK A01 T10021028  RH  082%=      5-min Rain = 0
KPD1 190614Z 33017G23KT M00/M03 A3006 RMK A01 T10021028  RH  082%=      5-min Rain = 0
KPD1 190615Z 33019G29KT M00/M03 A3006 RMK A01 T10021028  RH  082%=      5-min Rain = 0
KPD1 190616Z 34019G24KT M00/M03 A3006 RMK A01 T10011028  RH  082%=      5-min Rain = 0
KPD1 190617Z 34019G28KT M00/M03 A3006 RMK A01 T10011028  RH  082%=      5-min Rain = 0
KPD1 190618Z 33021KT M00/M03 A3006 RMK A01 T10011028  RH  082%=      5-min Rain = 0
KPD1 190619Z 34020G26KT M00/M03 A3006 RMK A01 T10011028  RH  082%=      5-min Rain = 0
KPD1 190620Z 33018G23KT M00/M03 A3006 RMK A01 T10011028  RH  082%=      5-min Rain = 0
KPD1 190621Z 34020KT M00/M03 A3006 RMK A01 T10011029  RH  082%=      5-min Rain = 0
KPD1 190622Z 34023G28KT M00/M03 A3007 RMK A01 T10011029  RH  082%=      5-min Rain = 0
KPD1 190623Z 34022G29KT M00/M03 A3007 RMK A01 T10011029  RH  082%=      5-min Rain = 0
KPD1 190624Z 34023G30KT M00/M03 A3007 RMK A01 T10011029  RH  081%=      5-min Rain = 0
KPD1 190625Z 34022KT M00/M03 A3007 RMK A01 T10011030  RH  081%=      5-min Rain = 0
KPD1 190626Z 34017G23KT M00/M03 A3007 RMK A01 T10011029  RH  081%=      5-min Rain = 0
KPD1 190627Z 34018G25KT M00/M03 A3007 RMK A01 T10011030  RH  081%=      5-min Rain = 0
KPD1 190628Z 33016G23KT M00/M03 A3007 RMK A01 T10011029  RH  081%=      5-min Rain = 0
KPD1 190629Z 34019G25KT M00/M03 A3007 RMK A01 T10011029  RH  081%=      5-min Rain = 0
KPD1 190630Z 33018G25KT M00/M03 A3007 RMK A01 T10021030  RH  081%=      5-min Rain = 0
KPD1 190631Z 34016G21KT M00/M03 A3007 RMK A01 T10021029  RH  082%=      5-min Rain = 0
KPD1 190632Z 33017KT M00/M03 A3007 RMK A01 T10021029  RH  082%=      5-min Rain = 0
KPD1 190633Z 33017G24KT M00/M03 A3007 RMK A01 T10021029  RH  082%=      5-min Rain = 0
KPD1 190634Z 33018KT M00/M03 A3007 RMK A01 T10021029  RH  082%=      5-min Rain = 0
KPD1 190635Z 33016KT M00/M03 A3007 RMK A01 T10021029  RH  082%=      5-min Rain = 0
KPD1 190636Z 34017KT M00/M03 A3007 RMK A01 T10021029  RH  082%=      5-min Rain = 0
KPD1 190637Z 33018G23KT M00/M03 A3007 RMK A01 T10031029  RH  082%=      5-min Rain = 0
KPD1 190638Z 33018G24KT M00/M03 A3007 RMK A01 T10031030  RH  082%=      5-min Rain = 0
KPD1 190639Z 34017KT M00/M03 A3007 RMK A01 T10021030  RH  082%=      5-min Rain = 0
KPD1 190640Z 34017KT M00/M03 A3007 RMK A01 T10031031  RH  082%=      5-min Rain = 0
KPD1 190641Z 34016G26KT M00/M03 A3007 RMK A01 T10031031  RH  082%=      5-min Rain = 0
KPD1 190642Z 34018G24KT M00/M03 A3007 RMK A01 T10041031  RH  082%=      5-min Rain = 0
KPD1 190643Z 35019G25KT M00/M03 A3007 RMK A01 T10041032  RH  081%=      5-min Rain = 0
KPD1 190644Z 34016G21KT M00/M03 A3007 RMK A01 T10041033  RH  081%=      5-min Rain = 0
KPD1 190645Z 34020G26KT M01/M03 A3007 RMK A01 T10051034  RH  081%=      5-min Rain = 0
KPD1 190646Z 34025G30KT M01/M04 A3007 RMK A01 T10051035  RH  080%=      5-min Rain = 0
KPD1 190647Z 34021G29KT M01/M04 A3007 RMK A01 T10051036  RH  080%=      5-min Rain = 0
KPD1 190648Z 34018G26KT M01/M04 A3008 RMK A01 T10061037  RH  079%=      5-min Rain = 0
KPD1 190649Z 34020KT M01/M04 A3008 RMK A01 T10061037  RH  079%=      5-min Rain = 0
KPD1 190650Z 34020G29KT M01/M04 A3008 RMK A01 T10071038  RH  080%=      5-min Rain = 0
KPD1 190651Z 34017G23KT M01/M04 A3008 RMK A01 T10071038  RH  080%=      5-min Rain = 0
KPD1 190652Z 34019G24KT M01/M04 A3008 RMK A01 T10071038  RH  079%=      5-min Rain = 0
KPD1 190653Z 33019KT M01/M04 A3008 RMK A01 T10081039  RH  079%=      5-min Rain = 0
KPD1 190654Z 34020G29KT M01/M04 A3008 RMK A01 T10081039  RH  080%=      5-min Rain = 0
KPD1 190655Z 34018G26KT M01/M04 A3008 RMK A01 T10081039  RH  079%=      5-min Rain = 0
KPD1 190656Z 34013G20KT M01/M04 A3008 RMK A01 T10081039  RH  079%=      5-min Rain = 0
KPD1 190657Z 34019G28KT M01/M04 A3008 RMK A01 T10081039  RH  080%=      5-min Rain = 0
KPD1 190658Z 34016G25KT M01/M04 A3008 RMK A01 T10091039  RH  080%=      5-min Rain = 0
KPD1 190659Z 34013G20KT M01/M04 A3008 RMK A01 T10091039  RH  080%=      5-min Rain = 0
KPD1 190700Z 33022G31KT M01/M04 A3008 RMK A01 T10091039  RH  080%=      5-min Rain = 0
KPD1 190701Z 33020G26KT M01/M04 A3008 RMK A01 T10091039  RH  080%=      5-min Rain = 0
KPD1 190702Z 34020G28KT M01/M04 A3008 RMK A01 T10091039  RH  080%=      5-min Rain = 0
KPD1 190703Z 34022G27KT M01/M04 A3008 RMK A01 T10091040  RH  080%=      5-min Rain = 0
KPD1 190704Z 34027G35KT M01/M04 A3008 RMK A01 T10091041  RH  079%=      5-min Rain = 0
KPD1 190705Z 34022G29KT M01/M04 A3008 RMK A01 T10101042  RH  079%=      5-min Rain = 0
KPD1 190706Z 33020G26KT M01/M04 A3008 RMK A01 T10101042  RH  079%=      5-min Rain = 0
KPD1 190707Z 34020G27KT M01/M04 A3009 RMK A01 T10101043  RH  078%=      5-min Rain = 0
KPD1 190708Z 33019G26KT M01/M04 A3008 RMK A01 T10111043  RH  078%=      5-min Rain = 0
KPD1 190709Z 33019G24KT M01/M04 A3009 RMK A01 T10101043  RH  079%=      5-min Rain = 0
KPD1 190710Z 34018G25KT M01/M04 A3009 RMK A01 T10111044  RH  079%=      5-min Rain = 0
KPD1 190711Z 33019G24KT M01/M04 A3009 RMK A01 T10111044  RH  079%=      5-min Rain = 0
KPD1 190712Z 33018KT M01/M04 A3009 RMK A01 T10111044  RH  078%=      5-min Rain = 0
KPD1 190713Z 33015G21KT M01/M04 A3009 RMK A01 T10111044  RH  079%=      5-min Rain = 0
KPD1 190714Z 33019KT M01/M04 A3009 RMK A01 T10121044  RH  079%=      5-min Rain = 0
KPD1 190715Z 33021G27KT M01/M04 A3009 RMK A01 T10121044  RH  079%=      5-min Rain = 0
KPD1 190716Z 33019KT M01/M04 A3009 RMK A01 T10121044  RH  079%=      5-min Rain = 0
KPD1 190717Z 33023G31KT M01/M05 A3009 RMK A01 T10121045  RH  078%=      5-min Rain = 0
KPD1 190718Z 33024G31KT M01/M05 A3009 RMK A01 T10121046  RH  078%=      5-min Rain = 0
KPD1 190719Z 33020G26KT M01/M05 A3009 RMK A01 T10121046  RH  078%=      5-min Rain = 0
KPD1 190720Z 33020G25KT M01/M05 A3009 RMK A01 T10121047  RH  078%=      5-min Rain = 0
KPD1 190721Z 33018KT M01/M05 A3009 RMK A01 T10121047  RH  077%=      5-min Rain = 0
KPD1 190722Z 33018G24KT M01/M05 A3009 RMK A01 T10131047  RH  077%=      5-min Rain = 0
KPD1 190723Z 33022G32KT M01/M05 A3009 RMK A01 T10131047  RH  078%=      5-min Rain = 0
KPD1 190724Z 34016G21KT M01/M05 A3009 RMK A01 T10131047  RH  077%=      5-min Rain = 0
KPD1 190725Z 33015G22KT M01/M05 A3009 RMK A01 T10131048  RH  077%=      5-min Rain = 0
KPD1 190726Z 33016G22KT M01/M05 A3009 RMK A01 T10141048  RH  077%=      5-min Rain = 0
KPD1 190727Z 34021G27KT M01/M05 A3009 RMK A01 T10141048  RH  078%=      5-min Rain = 0
KPD1 190728Z 34021G28KT M01/M05 A3009 RMK A01 T10141048  RH  077%=      5-min Rain = 0
KPD1 190729Z 34022G29KT M01/M05 A3009 RMK A01 T10141049  RH  077%=      5-min Rain = 0
KPD1 190730Z 34020KT M01/M05 A3009 RMK A01 T10141049  RH  077%=      5-min Rain = 0
KPD1 190731Z 33018G24KT M01/M05 A3009 RMK A01 T10141050  RH  077%=      5-min Rain = 0
KPD1 190732Z 33019G29KT M01/M05 A3009 RMK A01 T10141049  RH  077%=      5-min Rain = 0
KPD1 190733Z 34024G30KT M02/M05 A3009 RMK A01 T10151050  RH  077%=      5-min Rain = 0
KPD1 190734Z 34021G27KT M02/M05 A3009 RMK A01 T10151050  RH  077%=      5-min Rain = 0
KPD1 190735Z 34016G23KT M02/M05 A3009 RMK A01 T10151050  RH  077%=      5-min Rain = 0
KPD1 190736Z 34022G27KT M01/M05 A3009 RMK A01 T10141050  RH  077%=      5-min Rain = 0
KPD1 190737Z 34023G32KT M02/M05 A301 RMK A01 T10151050  RH  077%=      5-min Rain = 0
KPD1 190738Z 34023G28KT M02/M05 A301 RMK A01 T10151050  RH  077%=      5-min Rain = 0
KPD1 190739Z 34018G25KT M02/M05 A301 RMK A01 T10151051  RH  077%=      5-min Rain = 0
KPD1 190740Z 34017G22KT M02/M05 A301 RMK A01 T10151050  RH  077%=      5-min Rain = 0
KPD1 190741Z 34019G24KT M02/M05 A301 RMK A01 T10151050  RH  077%=      5-min Rain = 0
KPD1 190742Z 34020G27KT M02/M05 A301 RMK A01 T10151050  RH  077%=      5-min Rain = 0
KPD1 190743Z 34020G27KT M02/M05 A301 RMK A01 T10161050  RH  077%=      5-min Rain = 0
KPD1 190744Z 34020KT M02/M05 A301 RMK A01 T10161051  RH  077%=      5-min Rain = 0
KPD1 190745Z 34019G24KT M02/M05 A301 RMK A01 T10161051  RH  077%=      5-min Rain = 0
KPD1 190746Z 33019KT M02/M05 A301 RMK A01 T10161051  RH  077%=      5-min Rain = 0
KPD1 190747Z 34017G23KT M02/M05 A301 RMK A01 T10161050  RH  077%=      5-min Rain = 0
KPD1 190748Z 33018KT M02/M05 A301 RMK A01 T10171051  RH  077%=      5-min Rain = 0
KPD1 190749Z 34020G29KT M02/M05 A301 RMK A01 T10171051  RH  077%=      5-min Rain = 0
KPD1 190750Z 34020G26KT M02/M05 A301 RMK A01 T10171051  RH  077%=      5-min Rain = 0
KPD1 190751Z 34019G27KT M02/M05 A301 RMK A01 T10171051  RH  077%=      5-min Rain = 0
KPD1 190752Z 33018G25KT M02/M05 A301 RMK A01 T10171051  RH  077%=      5-min Rain = 0
KPD1 190753Z 34017G23KT M02/M05 A301 RMK A01 T10171051  RH  077%=      5-min Rain = 0
KPD1 190754Z 34022G28KT M02/M05 A301 RMK A01 T10171051  RH  077%=      5-min Rain = 0
KPD1 190755Z 34021KT M02/M05 A301 RMK A01 T10171051  RH  077%=      5-min Rain = 0
KPD1 190756Z 34017G22KT M02/M05 A301 RMK A01 T10171051  RH  077%=      5-min Rain = 0
KPD1 190757Z 34019G26KT M02/M05 A301 RMK A01 T10171052  RH  077%=      5-min Rain = 0
KPD1 190758Z 34018G23KT M02/M05 A301 RMK A01 T10171052  RH  077%=      5-min Rain = 0
KPD1 190759Z 34016KT M02/M05 A3011 RMK A01 T10171051  RH  077%=      5-min Rain = 0
KPD1 190800Z 33018G24KT M02/M05 A3011 RMK A01 T10181052  RH  077%=      5-min Rain = 0
KPD1 190801Z 34018KT M02/M05 A3011 RMK A01 T10181052  RH  078%=      5-min Rain = 0
KPD1 190802Z 34015KT M02/M05 A3011 RMK A01 T10181052  RH  077%=      5-min Rain = 0
KPD1 190803Z 34019G26KT M02/M05 A3011 RMK A01 T10181052  RH  077%=      5-min Rain = 0
KPD1 190804Z 34019KT M02/M05 A3011 RMK A01 T10181052  RH  077%=      5-min Rain = 0
KPD1 190805Z 33019G26KT M02/M05 A3011 RMK A01 T10181052  RH  077%=      5-min Rain = 0
KPD1 190806Z 34017KT M02/M05 A3011 RMK A01 T10181052  RH  078%=      5-min Rain = 0
KPD1 190807Z 34019G26KT M02/M05 A3011 RMK A01 T10181052  RH  078%=      5-min Rain = 0
KPD1 190808Z 34017G24KT M02/M05 A3011 RMK A01 T10181052  RH  078%=      5-min Rain = 0
KPD1 190809Z 33020KT M02/M05 A3011 RMK A01 T10181052  RH  078%=      5-min Rain = 0
KPD1 190810Z 33018G29KT M02/M05 A3011 RMK A01 T10181052  RH  078%=      5-min Rain = 0
KPD1 190811Z 34020G27KT M02/M05 A3011 RMK A01 T10181052  RH  078%=      5-min Rain = 0
KPD1 190812Z 34021G27KT M02/M05 A3011 RMK A01 T10181052  RH  078%=      5-min Rain = 0
KPD1 190813Z 34018G25KT M02/M05 A3011 RMK A01 T10181052  RH  078%=      5-min Rain = 0
KPD1 190814Z 33016G23KT M02/M05 A3011 RMK A01 T10181052  RH  078%=      5-min Rain = 0
KPD1 190815Z 33023G28KT M02/M05 A3011 RMK A01 T10181051  RH  078%=      5-min Rain = 0
KPD1 190816Z 34019G25KT M02/M05 A3011 RMK A01 T10171051  RH  078%=      5-min Rain = 0
KPD1 190817Z 34019KT M02/M05 A3012 RMK A01 T10171051  RH  078%=      5-min Rain = 0
KPD1 190818Z 33019G25KT M02/M05 A3012 RMK A01 T10171050  RH  078%=      5-min Rain = 0
KPD1 190819Z 34018KT M02/M05 A3012 RMK A01 T10181050  RH  079%=      5-min Rain = 0
KPD1 190820Z 34016G21KT M02/M05 A3011 RMK A01 T10181050  RH  079%=      5-min Rain = 0
KPD1 190821Z 33019G24KT M02/M05 A3012 RMK A01 T10181050  RH  079%=      5-min Rain = 0
KPD1 190822Z 33022G27KT M02/M05 A3012 RMK A01 T10181050  RH  079%=      5-min Rain = 0
KPD1 190823Z 33021G27KT M02/M05 A3011 RMK A01 T10181049  RH  079%=      5-min Rain = 0
KPD1 190824Z 33020G26KT M02/M05 A3011 RMK A01 T10171049  RH  079%=      5-min Rain = 0
KPD1 190825Z 34017KT M02/M05 A3012 RMK A01 T10171049  RH  079%=      5-min Rain = 0
KPD1 190826Z 34022KT M02/M05 A3011 RMK A01 T10171049  RH  079%=      5-min Rain = 0
KPD1 190827Z 34020G25KT M02/M05 A3012 RMK A01 T10171049  RH  079%=      5-min Rain = 0
KPD1 190828Z 33022KT M02/M05 A3012 RMK A01 T10171049  RH  079%=      5-min Rain = 0
KPD1 190829Z 33020G26KT M02/M05 A3012 RMK A01 T10171049  RH  079%=      5-min Rain = 0
KPD1 190830Z 34018G23KT M02/M05 A3012 RMK A01 T10171049  RH  079%=      5-min Rain = 0
KPD1 190831Z 34020KT M02/M05 A3012 RMK A01 T10171049  RH  079%=      5-min Rain = 0
KPD1 190832Z 34017G22KT M02/M05 A3012 RMK A01 T10171049  RH  079%=      5-min Rain = 0
KPD1 190833Z 34019G25KT M02/M05 A3012 RMK A01 T10181050  RH  079%=      5-min Rain = 0
KPD1 190834Z 33019KT M02/M05 A3012 RMK A01 T10181050  RH  079%=      5-min Rain = 0
KPD1 190835Z 34020G26KT M02/M05 A3012 RMK A01 T10181050  RH  079%=      5-min Rain = 0
KPD1 190836Z 33018G25KT M02/M05 A3012 RMK A01 T10181050  RH  079%=      5-min Rain = 0
KPD1 190837Z 34018KT M02/M05 A3012 RMK A01 T10181050  RH  079%=      5-min Rain = 0
KPD1 190838Z 34019G31KT M02/M05 A3012 RMK A01 T10191051  RH  078%=      5-min Rain = 0
KPD1 190839Z 33018G25KT M02/M05 A3012 RMK A01 T10181051  RH  078%=      5-min Rain = 0
KPD1 190840Z 34020G29KT M02/M05 A3012 RMK A01 T10181051  RH  078%=      5-min Rain = 0
KPD1 190841Z 34023G30KT M02/M05 A3012 RMK A01 T10191052  RH  078%=      5-min Rain = 0
KPD1 190842Z 34020G27KT M02/M05 A3012 RMK A01 T10181051  RH  078%=      5-min Rain = 0
KPD1 190843Z 34017KT M02/M05 A3012 RMK A01 T10191052  RH  078%=      5-min Rain = 0
KPD1 190844Z 35016G23KT M02/M05 A3012 RMK A01 T10201053  RH  078%=      5-min Rain = 0
KPD1 190845Z 34015KT M02/M05 A3012 RMK A01 T10201053  RH  078%=      5-min Rain = 0
KPD1 190846Z 33022G27KT M02/M05 A3012 RMK A01 T10211053  RH  078%=      5-min Rain = 0
KPD1 190847Z 34021G29KT M02/M05 A3012 RMK A01 T10211053  RH  078%=      5-min Rain = 0
KPD1 190848Z 34018G26KT M02/M05 A3012 RMK A01 T10201053  RH  078%=      5-min Rain = 0
KPD1 190849Z 33022KT M02/M05 A3012 RMK A01 T10211054  RH  078%=      5-min Rain = 0
KPD1 190850Z 34023G29KT M02/M05 A3012 RMK A01 T10211054  RH  078%=      5-min Rain = 0
KPD1 190851Z 33025G31KT M02/M05 A3012 RMK A01 T10211053  RH  078%=      5-min Rain = 0
KPD1 190852Z 34025G32KT M02/M05 A3012 RMK A01 T10211053  RH  078%=      5-min Rain = 0
KPD1 190853Z 34017G25KT M02/M05 A3012 RMK A01 T10211053  RH  078%=      5-min Rain = 0
KPD1 190854Z 34018G24KT M02/M05 A3012 RMK A01 T10211054  RH  078%=      5-min Rain = 0
KPD1 190855Z 33021G30KT M02/M05 A3012 RMK A01 T10221054  RH  078%=      5-min Rain = 0
KPD1 190856Z 34021G27KT M02/M05 A3012 RMK A01 T10221054  RH  079%=      5-min Rain = 0
KPD1 190857Z 33021G26KT M02/M05 A3012 RMK A01 T10221054  RH  079%=      5-min Rain = 0
KPD1 190858Z 33017G22KT M02/M05 A3012 RMK A01 T10221054  RH  079%=      5-min Rain = 0
KPD1 190859Z 34020KT M02/M05 A3012 RMK A01 T10221054  RH  079%=      5-min Rain = 0
KPD1 190900Z 34017KT M02/M05 A3012 RMK A01 T10221054  RH  079%=      5-min Rain = 0
KPD1 190901Z 34017KT M02/M05 A3013 RMK A01 T10221053  RH  079%=      5-min Rain = 0
KPD1 190902Z 34022G27KT M02/M05 A3012 RMK A01 T10221053  RH  079%=      5-min Rain = 0
KPD1 190903Z 34023KT M02/M05 A3012 RMK A01 T10221053  RH  079%=      5-min Rain = 0
KPD1 190904Z 33019G24KT M02/M05 A3013 RMK A01 T10221054  RH  079%=      5-min Rain = 0
KPD1 190905Z 34019G24KT M02/M05 A3013 RMK A01 T10231054  RH  079%=      5-min Rain = 0
KPD1 190906Z 34019KT M02/M05 A3013 RMK A01 T10221054  RH  079%=      5-min Rain = 0
KPD1 190907Z 33016KT M02/M05 A3013 RMK A01 T10231054  RH  079%=      5-min Rain = 0
KPD1 190908Z 33018G23KT M02/M05 A3013 RMK A01 T10231054  RH  079%=      5-min Rain = 0
KPD1 190909Z 34017KT M02/M05 A3013 RMK A01 T10231054  RH  079%=      5-min Rain = 0
KPD1 190910Z 34017G25KT M02/M05 A3013 RMK A01 T10231054  RH  079%=      5-min Rain = 0
KPD1 190911Z 34019KT M02/M05 A3013 RMK A01 T10231054  RH  079%=      5-min Rain = 0
KPD1 190912Z 33018G23KT M02/M06 A3013 RMK A01 T10241055  RH  079%=      5-min Rain = 0
KPD1 190913Z 33022G27KT M02/M05 A3013 RMK A01 T10231054  RH  079%=      5-min Rain = 0
KPD1 190914Z 34020G26KT M02/M05 A3013 RMK A01 T10231054  RH  079%=      5-min Rain = 0
KPD1 190915Z 33015G21KT M02/M06 A3013 RMK A01 T10241055  RH  079%=      5-min Rain = 0
KPD1 190916Z 33018G27KT M02/M05 A3013 RMK A01 T10231054  RH  079%=      5-min Rain = 0
KPD1 190917Z 33020G26KT M02/M05 A3013 RMK A01 T10231054  RH  079%=      5-min Rain = 0
KPD1 190918Z 34016KT M02/M05 A3014 RMK A01 T10231054  RH  079%=      5-min Rain = 0
KPD1 190919Z 34018G24KT M02/M05 A3014 RMK A01 T10231054  RH  079%=      5-min Rain = 0
KPD1 190920Z 34022KT M02/M05 A3014 RMK A01 T10231054  RH  079%=      5-min Rain = 0
KPD1 190921Z 33018G23KT M02/M06 A3014 RMK A01 T10231055  RH  079%=      5-min Rain = 0
KPD1 190922Z 35014G20KT M02/M06 A3014 RMK A01 T10231055  RH  079%=      5-min Rain = 0
KPD1 190923Z 34020KT M02/M06 A3014 RMK A01 T10231055  RH  079%=      5-min Rain = 0
KPD1 190924Z 34016G21KT M02/M06 A3014 RMK A01 T10231055  RH  079%=      5-min Rain = 0
KPD1 190925Z 34014G20KT M02/M06 A3014 RMK A01 T10231055  RH  079%=      5-min Rain = 0
KPD1 190926Z 34016G24KT M02/M05 A3014 RMK A01 T10231054  RH  079%=      5-min Rain = 0
KPD1 190927Z 34018G23KT M02/M05 A3014 RMK A01 T10231054  RH  079%=      5-min Rain = 0
KPD1 190928Z 34016G21KT M02/M05 A3014 RMK A01 T10231054  RH  079%=      5-min Rain = 0
KPD1 190929Z 33016G21KT M02/M06 A3014 RMK A01 T10231055  RH  079%=      5-min Rain = 0
KPD1 190930Z 34013G19KT M02/M05 A3014 RMK A01 T10231054  RH  079%=      5-min Rain = 0
KPD1 190931Z 33020KT M02/M05 A3014 RMK A01 T10231054  RH  079%=      5-min Rain = 0
KPD1 190932Z 33020G25KT M02/M05 A3015 RMK A01 T10231054  RH  079%=      5-min Rain = 0
KPD1 190933Z 33019G24KT M02/M06 A3015 RMK A01 T10231055  RH  079%=      5-min Rain = 0
KPD1 190934Z 34019G25KT M02/M06 A3015 RMK A01 T10231055  RH  079%=      5-min Rain = 0
KPD1 190935Z 34018KT M02/M06 A3015 RMK A01 T10231055  RH  079%=      5-min Rain = 0
KPD1 190936Z 33014KT M02/M06 A3015 RMK A01 T10231055  RH  079%=      5-min Rain = 0
KPD1 190937Z 34016KT M02/M06 A3015 RMK A01 T10231055  RH  079%=      5-min Rain = 0
KPD1 190938Z 34016G21KT M02/M06 A3015 RMK A01 T10231055  RH  079%=      5-min Rain = 0
KPD1 190939Z 33014G21KT M02/M06 A3015 RMK A01 T10231056  RH  078%=      5-min Rain = 0
KPD1 190940Z 33017KT M02/M06 A3015 RMK A01 T10241056  RH  078%=      5-min Rain = 0
KPD1 190941Z 33019KT M02/M06 A3015 RMK A01 T10241057  RH  078%=      5-min Rain = 0
KPD1 190942Z 34017G24KT M02/M06 A3015 RMK A01 T10241057  RH  078%=      5-min Rain = 0
KPD1 190943Z 33016G23KT M03/M06 A3015 RMK A01 T10251057  RH  078%=      5-min Rain = 0
KPD1 190944Z 34018KT M03/M06 A3015 RMK A01 T10251057  RH  078%=      5-min Rain = 0
KPD1 190945Z 33018G23KT M03/M06 A3015 RMK A01 T10251058  RH  078%=      5-min Rain = 0
KPD1 190946Z 33018KT M03/M06 A3015 RMK A01 T10251057  RH  078%=      5-min Rain = 0
KPD1 190947Z 33014G21KT M03/M06 A3015 RMK A01 T10251058  RH  078%=      5-min Rain = 0
KPD1 190948Z 33019G27KT M03/M06 A3015 RMK A01 T10251057  RH  078%=      5-min Rain = 0
KPD1 190949Z 33018G23KT M03/M06 A3015 RMK A01 T10251058  RH  078%=      5-min Rain = 0
KPD1 190950Z 34022G27KT M03/M06 A3015 RMK A01 T10251058  RH  078%=      5-min Rain = 0
KPD1 190951Z 33024G31KT M03/M06 A3015 RMK A01 T10251058  RH  078%=      5-min Rain = 0
KPD1 190952Z 33019KT M02/M06 A3015 RMK A01 T10241057  RH  078%=      5-min Rain = 0
KPD1 190953Z 33018G23KT M02/M06 A3015 RMK A01 T10241057  RH  078%=      5-min Rain = 0
KPD1 190954Z 34017KT M02/M06 A3015 RMK A01 T10241057  RH  078%=      5-min Rain = 0
KPD1 190955Z 33018G23KT M02/M06 A3015 RMK A01 T10241057  RH  078%=      5-min Rain = 0
KPD1 190956Z 33019G25KT M03/M06 A3014 RMK A01 T10251058  RH  078%=      5-min Rain = 0
KPD1 190957Z 33016G21KT M02/M06 A3014 RMK A01 T10241057  RH  078%=      5-min Rain = 0
KPD1 190958Z 33022G27KT M03/M06 A3014 RMK A01 T10251058  RH  078%=      5-min Rain = 0
KPD1 190959Z 33018G24KT M02/M06 A3015 RMK A01 T10241057  RH  078%=      5-min Rain = 0
KPD1 191000Z 34019G27KT M02/M06 A3014 RMK A01 T10241057  RH  078%=      5-min Rain = 0
KPD1 191001Z 33021G26KT M02/M06 A3014 RMK A01 T10241057  RH  078%=      5-min Rain = 0
KPD1 191002Z 33021G29KT M02/M06 A3014 RMK A01 T10241057  RH  078%=      5-min Rain = 0
KPD1 191003Z 33021G27KT M02/M06 A3014 RMK A01 T10241057  RH  078%=      5-min Rain = 0
KPD1 191004Z 34016G26KT M02/M06 A3014 RMK A01 T10241057  RH  078%=      5-min Rain = 0
KPD1 191005Z 33022G27KT M02/M06 A3014 RMK A01 T10241057  RH  078%=      5-min Rain = 0
KPD1 191006Z 33022G29KT M02/M06 A3014 RMK A01 T10241057  RH  078%=      5-min Rain = 0
KPD1 191007Z 34021G27KT M02/M06 A3014 RMK A01 T10241057  RH  078%=      5-min Rain = 0
KPD1 191008Z 34021G27KT M02/M06 A3014 RMK A01 T10241057  RH  078%=      5-min Rain = 0
KPD1 191009Z 33019G26KT M02/M06 A3014 RMK A01 T10241057  RH  078%=      5-min Rain = 0
KPD1 191010Z 33023G30KT M02/M06 A3014 RMK A01 T10241057  RH  078%=      5-min Rain = 0
KPD1 191011Z 33020G29KT M02/M06 A3014 RMK A01 T10241057  RH  078%=      5-min Rain = 0
KPD1 191012Z 34021G26KT M02/M06 A3014 RMK A01 T10241057  RH  078%=      5-min Rain = 0
KPD1 191013Z 33018G23KT M02/M06 A3014 RMK A01 T10241057  RH  078%=      5-min Rain = 0
KPD1 191014Z 33020G25KT M02/M06 A3014 RMK A01 T10241057  RH  078%=      5-min Rain = 0
KPD1 191015Z 34022G27KT M02/M06 A3014 RMK A01 T10241057  RH  078%=      5-min Rain = 0
KPD1 191016Z 33019G26KT M02/M06 A3014 RMK A01 T10241057  RH  078%=      5-min Rain = 0
KPD1 191017Z 34020G26KT M02/M06 A3014 RMK A01 T10241056  RH  079%=      5-min Rain = 0
KPD1 191018Z 34019KT M02/M06 A3014 RMK A01 T10241056  RH  079%=      5-min Rain = 0
KPD1 191019Z 33016KT M02/M06 A3014 RMK A01 T10241056  RH  079%=      5-min Rain = 0
KPD1 191020Z 34020G25KT M02/M06 A3014 RMK A01 T10241056  RH  079%=      5-min Rain = 0
KPD1 191021Z 34018G26KT M03/M06 A3014 RMK A01 T10251056  RH  079%=      5-min Rain = 0
KPD1 191022Z 34019G24KT M02/M06 A3014 RMK A01 T10241056  RH  079%=      5-min Rain = 0
KPD1 191023Z 34016KT M03/M06 A3014 RMK A01 T10251056  RH  079%=      5-min Rain = 0
KPD1 191024Z 34017G22KT M03/M06 A3014 RMK A01 T10251056  RH  079%=      5-min Rain = 0
KPD1 191025Z 34018G25KT M03/M06 A3015 RMK A01 T10251056  RH  080%=      5-min Rain = 0
KPD1 191026Z 34018G24KT M03/M06 A3015 RMK A01 T10251055  RH  080%=      5-min Rain = 0
KPD1 191027Z 33016KT M03/M06 A3015 RMK A01 T10251055  RH  080%=      5-min Rain = 0
KPD1 191028Z 34017KT M03/M06 A3015 RMK A01 T10251055  RH  080%=      5-min Rain = 0
KPD1 191029Z 33017G23KT M03/M06 A3015 RMK A01 T10251055  RH  080%=      5-min Rain = 0
KPD1 191030Z 34017G23KT M03/M06 A3015 RMK A01 T10251055  RH  080%=      5-min Rain = 0
KPD1 191031Z 33018KT M03/M06 A3015 RMK A01 T10251055  RH  080%=      5-min Rain = 0
KPD1 191032Z 33018KT M03/M06 A3015 RMK A01 T10251055  RH  080%=      5-min Rain = 0
KPD1 191033Z 33021KT M03/M06 A3015 RMK A01 T10251055  RH  080%=      5-min Rain = 0
KPD1 191034Z 33016KT M03/M06 A3015 RMK A01 T10251055  RH  080%=      5-min Rain = 0
KPD1 191035Z 33016G22KT M03/M05 A3015 RMK A01 T10251054  RH  080%=      5-min Rain = 0
KPD1 191036Z 33017G24KT M03/M05 A3015 RMK A01 T10251054  RH  081%=      5-min Rain = 0
KPD1 191037Z 33020G28KT M03/M05 A3015 RMK A01 T10261054  RH  081%=      5-min Rain = 0
KPD1 191038Z 33020KT M03/M05 A3015 RMK A01 T10251054  RH  081%=      5-min Rain = 0
KPD1 191039Z 33018G26KT M03/M05 A3015 RMK A01 T10251053  RH  081%=      5-min Rain = 0
KPD1 191040Z 33021G26KT M03/M05 A3015 RMK A01 T10251054  RH  081%=      5-min Rain = 0
KPD1 191041Z 34017KT M02/M05 A3015 RMK A01 T10241053  RH  081%=      5-min Rain = 0
KPD1 191042Z 33016G22KT M03/M05 A3015 RMK A01 T10251054  RH  080%=      5-min Rain = 0
KPD1 191043Z 33016G22KT M02/M05 A3016 RMK A01 T10241053  RH  080%=      5-min Rain = 0
KPD1 191044Z 33020G25KT M02/M05 A3016 RMK A01 T10241053  RH  081%=      5-min Rain = 0
KPD1 191045Z 33019G25KT M02/M05 A3016 RMK A01 T10241053  RH  081%=      5-min Rain = 0
KPD1 191046Z 33022KT M02/M05 A3015 RMK A01 T10241053  RH  081%=      5-min Rain = 0
KPD1 191047Z 34017G22KT M02/M05 A3016 RMK A01 T10231052  RH  080%=      5-min Rain = 0
KPD1 191048Z 33019G24KT M02/M05 A3015 RMK A01 T10231053  RH  080%=      5-min Rain = 0
KPD1 191049Z 34016G21KT M02/M05 A3015 RMK A01 T10231053  RH  080%=      5-min Rain = 0
KPD1 191050Z 33019G24KT M02/M05 A3016 RMK A01 T10231052  RH  081%=      5-min Rain = 0
KPD1 191051Z 33019G25KT M02/M05 A3015 RMK A01 T10241052  RH  081%=      5-min Rain = 0
KPD1 191052Z 33014G19KT M02/M05 A3016 RMK A01 T10241052  RH  081%=      5-min Rain = 0
KPD1 191053Z 34016KT M02/M05 A3016 RMK A01 T10241052  RH  081%=      5-min Rain = 0
KPD1 191054Z 33013KT M02/M05 A3016 RMK A01 T10241052  RH  081%=      5-min Rain = 0
KPD1 191055Z 32017G24KT M02/M05 A3015 RMK A01 T10241052  RH  081%=      5-min Rain = 0
KPD1 191056Z 33019G24KT M02/M05 A3016 RMK A01 T10241052  RH  081%=      5-min Rain = 0
KPD1 191057Z 34020KT M02/M05 A3016 RMK A01 T10241052  RH  081%=      5-min Rain = 0
KPD1 191058Z 33019KT M02/M05 A3016 RMK A01 T10241052  RH  081%=      5-min Rain = 0
KPD1 191059Z 32018G23KT M02/M05 A3016 RMK A01 T10241052  RH  081%=      5-min Rain = 0
KPD1 191100Z 33018KT M03/M05 A3016 RMK A01 T10251052  RH  081%=      5-min Rain = 0
KPD1 191101Z 33019KT M03/M05 A3016 RMK A01 T10251052  RH  081%=      5-min Rain = 0
KPD1 191102Z 33017G24KT M02/M05 A3016 RMK A01 T10241052  RH  081%=      5-min Rain = 0
KPD1 191103Z 33018G23KT M03/M05 A3016 RMK A01 T10251052  RH  081%=      5-min Rain = 0
KPD1 191104Z 32017G23KT M02/M05 A3017 RMK A01 T10241052  RH  081%=      5-min Rain = 0
KPD1 191105Z 34018G25KT M02/M05 A3017 RMK A01 T10241052  RH  081%=      5-min Rain = 0
KPD1 191106Z 33019KT M02/M05 A3017 RMK A01 T10241052  RH  081%=      5-min Rain = 0
KPD1 191107Z 33017KT M02/M05 A3017 RMK A01 T10241052  RH  081%=      5-min Rain = 0
KPD1 191108Z 32017KT M02/M05 A3017 RMK A01 T10241052  RH  081%=      5-min Rain = 0
KPD1 191109Z 32016G22KT M02/M05 A3017 RMK A01 T10241052  RH  081%=      5-min Rain = 0
KPD1 191110Z 33014G19KT M02/M05 A3017 RMK A01 T10241052  RH  081%=      5-min Rain = 0
KPD1 191111Z 32014KT M02/M05 A3017 RMK A01 T10241052  RH  081%=      5-min Rain = 0
KPD1 191112Z 32014KT M02/M05 A3017 RMK A01 T10241052  RH  081%=      5-min Rain = 0
KPD1 191113Z 32015G20KT M03/M05 A3017 RMK A01 T10251052  RH  081%=      5-min Rain = 0
KPD1 191114Z 32017KT M03/M05 A3017 RMK A01 T10251053  RH  081%=      5-min Rain = 0
KPD1 191115Z 32015KT M03/M05 A3017 RMK A01 T10251053  RH  081%=      5-min Rain = 0
KPD1 191116Z 32015G20KT M03/M05 A3018 RMK A01 T10261054  RH  081%=      5-min Rain = 0
KPD1 191117Z 33018G23KT M03/M05 A3018 RMK A01 T10261054  RH  081%=      5-min Rain = 0
KPD1 191118Z 33018G23KT M03/M05 A3018 RMK A01 T10261053  RH  081%=      5-min Rain = 0
KPD1 191119Z 33015KT M03/M05 A3018 RMK A01 T10261054  RH  081%=      5-min Rain = 0
KPD1 191120Z 33014G20KT M03/M05 A3018 RMK A01 T10271054  RH  081%=      5-min Rain = 0
KPD1 191121Z 33014G19KT M03/M06 A3018 RMK A01 T10271055  RH  081%=      5-min Rain = 0
KPD1 191122Z 33013G21KT M03/M06 A3018 RMK A01 T10281055  RH  081%=      5-min Rain = 0
KPD1 191123Z 33016KT M03/M06 A3018 RMK A01 T10271055  RH  082%=      5-min Rain = 0
KPD1 191124Z 33016KT M03/M06 A3018 RMK A01 T10281055  RH  082%=      5-min Rain = 0
KPD1 191125Z 32015KT M03/M06 A3018 RMK A01 T10281055  RH  082%=      5-min Rain = 0
KPD1 191126Z 32016G21KT M03/M06 A3018 RMK A01 T10281055  RH  082%=      5-min Rain = 0
KPD1 191127Z 32015KT M03/M06 A3018 RMK A01 T10281055  RH  082%=      5-min Rain = 0
KPD1 191128Z 32014KT M03/M06 A3018 RMK A01 T10291056  RH  082%=      5-min Rain = 0
KPD1 191129Z 32012KT M03/M06 A3018 RMK A01 T10291056  RH  082%=      5-min Rain = 0
KPD1 191130Z 32015G21KT M03/M06 A3018 RMK A01 T10291056  RH  082%=      5-min Rain = 0
KPD1 191131Z 32016KT M03/M06 A3018 RMK A01 T10291056  RH  082%=      5-min Rain = 0
KPD1 191132Z 32014KT M03/M06 A3018 RMK A01 T10291055  RH  082%=      5-min Rain = 0
KPD1 191133Z 32014G19KT M03/M06 A3018 RMK A01 T10301056  RH  082%=      5-min Rain = 0
KPD1 191134Z 32013G18KT M03/M06 A3018 RMK A01 T10301056  RH  082%=      5-min Rain = 0
KPD1 191135Z 32013G19KT M03/M06 A3018 RMK A01 T10301056  RH  082%=      5-min Rain = 0
KPD1 191136Z 33015KT M03/M06 A3018 RMK A01 T10301056  RH  082%=      5-min Rain = 0
KPD1 191137Z 32013KT M03/M06 A3018 RMK A01 T10311056  RH  083%=      5-min Rain = 0
KPD1 191138Z 32013KT M03/M06 A3018 RMK A01 T10301056  RH  083%=      5-min Rain = 0
KPD1 191139Z 33015KT M03/M06 A3018 RMK A01 T10301056  RH  083%=      5-min Rain = 0
KPD1 191140Z 32011KT M03/M06 A3018 RMK A01 T10301056  RH  083%=      5-min Rain = 0
KPD1 191141Z 32012KT M03/M06 A3018 RMK A01 T10301056  RH  082%=      5-min Rain = 0
KPD1 191142Z 32016G21KT M03/M06 A3018 RMK A01 T10311057  RH  082%=      5-min Rain = 0
KPD1 191143Z 33015G22KT M03/M06 A3018 RMK A01 T10311057  RH  083%=      5-min Rain = 0
KPD1 191144Z 32017KT M03/M06 A3018 RMK A01 T10311056  RH  083%=      5-min Rain = 0
KPD1 191145Z 32014KT M03/M06 A3018 RMK A01 T10301056  RH  083%=      5-min Rain = 0
KPD1 191146Z 32013G18KT M03/M06 A3018 RMK A01 T10301056  RH  082%=      5-min Rain = 0
KPD1 191147Z 33011KT M03/M06 A3018 RMK A01 T10301056  RH  082%=      5-min Rain = 0
KPD1 191148Z 32012KT M03/M06 A3018 RMK A01 T10311057  RH  082%=      5-min Rain = 0
KPD1 191149Z 33014KT M03/M06 A3018 RMK A01 T10311057  RH  082%=      5-min Rain = 0
KPD1 191150Z 32014KT M03/M06 A3018 RMK A01 T10311057  RH  082%=      5-min Rain = 0
KPD1 191151Z 33014G19KT M03/M06 A3018 RMK A01 T10311057  RH  082%=      5-min Rain = 0
KPD1 191152Z 33016KT M03/M06 A3018 RMK A01 T10311057  RH  082%=      5-min Rain = 0
KPD1 191153Z 33016KT M03/M06 A3018 RMK A01 T10301056  RH  082%=      5-min Rain = 0
KPD1 191154Z 33017KT M03/M06 A3018 RMK A01 T10311057  RH  082%=      5-min Rain = 0
KPD1 191155Z 33016G21KT M03/M06 A3018 RMK A01 T10301057  RH  082%=      5-min Rain = 0
KPD1 191156Z 33015KT M03/M06 A3018 RMK A01 T10301057  RH  082%=      5-min Rain = 0
KPD1 191157Z 33015G20KT M03/M06 A3018 RMK A01 T10301057  RH  082%=      5-min Rain = 0
KPD1 191158Z 33014KT M03/M06 A3018 RMK A01 T10301057  RH  082%=      5-min Rain = 0
KPD1 191159Z 33013KT M03/M06 A3018 RMK A01 T10301057  RH  082%=      5-min Rain = 0
KPD1 191200Z 33016KT M03/M06 A3018 RMK A01 T10301057  RH  082%=      5-min Rain = 0
KPD1 191201Z 33015G20KT M03/M06 A3018 RMK A01 T10301057  RH  082%=      5-min Rain = 0
KPD1 191202Z 33011KT M03/M06 A3019 RMK A01 T10301057  RH  082%=      5-min Rain = 0
KPD1 191203Z 33014KT M03/M06 A3019 RMK A01 T10311057  RH  082%=      5-min Rain = 0
KPD1 191204Z 33014G20KT M03/M06 A3019 RMK A01 T10301057  RH  082%=      5-min Rain = 0
KPD1 191205Z 33016G21KT M03/M06 A3019 RMK A01 T10301057  RH  082%=      5-min Rain = 0
KPD1 191206Z 33014G21KT M03/M06 A3019 RMK A01 T10301057  RH  082%=      5-min Rain = 0
KPD1 191207Z 33017KT M03/M06 A3019 RMK A01 T10301057  RH  082%=      5-min Rain = 0
KPD1 191208Z 33015KT M03/M06 A3019 RMK A01 T10301057  RH  082%=      5-min Rain = 0
KPD1 191209Z 33011KT M03/M06 A3019 RMK A01 T10301057  RH  081%=      5-min Rain = 0
KPD1 191210Z 33014G19KT M03/M06 A3019 RMK A01 T10301057  RH  081%=      5-min Rain = 0
KPD1 191211Z 33016KT M03/M06 A3019 RMK A01 T10301057  RH  081%=      5-min Rain = 0
KPD1 191212Z 33014KT M03/M06 A3019 RMK A01 T10301057  RH  081%=      5-min Rain = 0
KPD1 191213Z 33013G19KT M03/M06 A3019 RMK A01 T10301057  RH  081%=      5-min Rain = 0
KPD1 191214Z 33012KT M03/M06 A3019 RMK A01 T10301057  RH  081%=      5-min Rain = 0
KPD1 191215Z 33013KT M03/M06 A3019 RMK A01 T10301057  RH  081%=      5-min Rain = 0
KPD1 191216Z 34013KT M03/M06 A3019 RMK A01 T10301057  RH  081%=      5-min Rain = 0
KPD1 191217Z 34015KT M03/M06 A3019 RMK A01 T10301057  RH  081%=      5-min Rain = 0
KPD1 191218Z 33013KT M03/M06 A3019 RMK A01 T10301057  RH  081%=      5-min Rain = 0
KPD1 191219Z 34014G19KT M03/M06 A3019 RMK A01 T10301057  RH  081%=      5-min Rain = 0
KPD1 191220Z 33013KT M03/M06 A3019 RMK A01 T10301057  RH  081%=      5-min Rain = 0
KPD1 191221Z 34013KT M03/M06 A3019 RMK A01 T10291057  RH  081%=      5-min Rain = 0
KPD1 191222Z 34016KT M03/M06 A3019 RMK A01 T10291057  RH  081%=      5-min Rain = 0
KPD1 191223Z 34014KT M03/M06 A3019 RMK A01 T10291057  RH  081%=      5-min Rain = 0
KPD1 191224Z 34012KT M03/M06 A3019 RMK A01 T10291057  RH  081%=      5-min Rain = 0
KPD1 191225Z 34015KT M03/M06 A3019 RMK A01 T10281057  RH  081%=      5-min Rain = 0
KPD1 191226Z 33015KT M03/M06 A3019 RMK A01 T10281057  RH  081%=      5-min Rain = 0
KPD1 191227Z 33013KT M03/M06 A3019 RMK A01 T10281057  RH  080%=      5-min Rain = 0
KPD1 191228Z 34016G23KT M03/M06 A3019 RMK A01 T10281058  RH  080%=      5-min Rain = 0
KPD1 191229Z 33014G20KT M03/M06 A3019 RMK A01 T10281058  RH  080%=      5-min Rain = 0
KPD1 191230Z 34018G23KT M03/M06 A3019 RMK A01 T10281057  RH  080%=      5-min Rain = 0
KPD1 191231Z 34017KT M03/M06 A3019 RMK A01 T10271057  RH  080%=      5-min Rain = 0
KPD1 191232Z 33015KT M03/M06 A3019 RMK A01 T10271057  RH  080%=      5-min Rain = 0
KPD1 191233Z 33018G24KT M03/M06 A3019 RMK A01 T10271057  RH  080%=      5-min Rain = 0
KPD1 191234Z 33016KT M03/M06 A3019 RMK A01 T10271058  RH  080%=      5-min Rain = 0
KPD1 191235Z 34016G21KT M03/M06 A3019 RMK A01 T10271057  RH  079%=      5-min Rain = 0
KPD1 191236Z 33013KT M03/M06 A3019 RMK A01 T10261057  RH  079%=      5-min Rain = 0
KPD1 191237Z 33018G24KT M03/M06 A3019 RMK A01 T10271058  RH  079%=      5-min Rain = 0
KPD1 191238Z 34016KT M03/M06 A3019 RMK A01 T10271058  RH  079%=      5-min Rain = 0
KPD1 191239Z 34019G24KT M03/M06 A3019 RMK A01 T10271058  RH  079%=      5-min Rain = 0
KPD1 191240Z 34017G24KT M03/M06 A3019 RMK A01 T10271058  RH  079%=      5-min Rain = 0
KPD1 191241Z 34015G20KT M03/M06 A3019 RMK A01 T10271058  RH  079%=      5-min Rain = 0
KPD1 191242Z 34020KT M03/M06 A3019 RMK A01 T10261058  RH  079%=      5-min Rain = 0
KPD1 191243Z 34015KT M03/M06 A3019 RMK A01 T10271058  RH  079%=      5-min Rain = 0
KPD1 191244Z 34017KT M03/M06 A3019 RMK A01 T10271058  RH  079%=      5-min Rain = 0
KPD1 191245Z 34017KT M03/M06 A3019 RMK A01 T10271058  RH  079%=      5-min Rain = 0
KPD1 191246Z 34017G26KT M03/M06 A3019 RMK A01 T10271059  RH  079%=      5-min Rain = 0
KPD1 191247Z 34016KT M03/M06 A3019 RMK A01 T10271058  RH  079%=      5-min Rain = 0
KPD1 191248Z 34016G24KT M03/M06 A3019 RMK A01 T10271058  RH  079%=      5-min Rain = 0
KPD1 191249Z 34018KT M03/M06 A3019 RMK A01 T10271059  RH  079%=      5-min Rain = 0
KPD1 191250Z 34017G23KT M03/M06 A3019 RMK A01 T10271059  RH  079%=      5-min Rain = 0
KPD1 191251Z 34018G25KT M03/M06 A3019 RMK A01 T10281059  RH  079%=      5-min Rain = 0
KPD1 191252Z 34017G22KT M03/M06 A3019 RMK A01 T10281059  RH  079%=      5-min Rain = 0
KPD1 191253Z 34018G24KT M03/M06 A3019 RMK A01 T10281059  RH  079%=      5-min Rain = 0
KPD1 191254Z 34019G25KT M03/M06 A3019 RMK A01 T10291059  RH  079%=      5-min Rain = 0
KPD1 191255Z 34017KT M03/M06 A3019 RMK A01 T10281059  RH  079%=      5-min Rain = 0
KPD1 191256Z 34019G29KT M03/M06 A302 RMK A01 T10291059  RH  079%=      5-min Rain = 0
KPD1 191257Z 34017KT M03/M06 A302 RMK A01 T10291060  RH  080%=      5-min Rain = 0
KPD1 191258Z 33019G24KT M03/M06 A302 RMK A01 T10291060  RH  080%=      5-min Rain = 0
KPD1 191259Z 34018KT M03/M06 A302 RMK A01 T10291059  RH  080%=      5-min Rain = 0
KPD1 191300Z 34016G22KT M03/M06 A302 RMK A01 T10291059  RH  080%=      5-min Rain = 0
KPD1 191301Z 34018G24KT M03/M06 A302 RMK A01 T10291059  RH  080%=      5-min Rain = 0
KPD1 191302Z 34015G21KT M03/M06 A302 RMK A01 T10291060  RH  080%=      5-min Rain = 0
KPD1 191303Z 34017G23KT M03/M06 A302 RMK A01 T10301060  RH  080%=      5-min Rain = 0
KPD1 191304Z 34016G23KT M03/M06 A302 RMK A01 T10301060  RH  080%=      5-min Rain = 0
KPD1 191305Z 34014KT M03/M06 A302 RMK A01 T10301060  RH  080%=      5-min Rain = 0
KPD1 191306Z 34014KT M03/M06 A302 RMK A01 T10301060  RH  080%=      5-min Rain = 0
KPD1 191307Z 33013KT M03/M06 A302 RMK A01 T10301060  RH  080%=      5-min Rain = 0
KPD1 191308Z 34015G21KT M03/M06 A302 RMK A01 T10311060  RH  080%=      5-min Rain = 0
KPD1 191309Z 34017KT M03/M06 A3021 RMK A01 T10311060  RH  080%=      5-min Rain = 0
KPD1 191310Z 33016KT M03/M06 A3021 RMK A01 T10311060  RH  080%=      5-min Rain = 0
KPD1 191311Z 34016KT M03/M06 A3021 RMK A01 T10311060  RH  080%=      5-min Rain = 0
KPD1 191312Z 34017KT M03/M06 A3021 RMK A01 T10311060  RH  080%=      5-min Rain = 0
KPD1 191313Z 34017G22KT M03/M06 A3021 RMK A01 T10311060  RH  080%=      5-min Rain = 0
KPD1 191314Z 34015G20KT M03/M06 A3021 RMK A01 T10311060  RH  080%=      5-min Rain = 0
KPD1 191315Z 34017G23KT M03/M06 A3021 RMK A01 T10311061  RH  080%=      5-min Rain = 0
KPD1 191316Z 34018G23KT M03/M06 A3021 RMK A01 T10321061  RH  080%=      5-min Rain = 0
KPD1 191317Z 34017G23KT M03/M06 A3021 RMK A01 T10311061  RH  080%=      5-min Rain = 0
KPD1 191318Z 34013KT M03/M06 A3022 RMK A01 T10311061  RH  080%=      5-min Rain = 0
KPD1 191319Z 34014KT M03/M06 A3022 RMK A01 T10311061  RH  080%=      5-min Rain = 0
KPD1 191320Z 33013KT M03/M06 A3022 RMK A01 T10321061  RH  080%=      5-min Rain = 0
KPD1 191321Z 34016G21KT M03/M06 A3022 RMK A01 T10321061  RH  080%=      5-min Rain = 0
KPD1 191322Z 33016KT M03/M06 A3022 RMK A01 T10321061  RH  081%=      5-min Rain = 0
KPD1 191323Z 34015KT M03/M06 A3022 RMK A01 T10321061  RH  081%=      5-min Rain = 0
KPD1 191324Z 34016G22KT M03/M06 A3022 RMK A01 T10321061  RH  081%=      5-min Rain = 0
KPD1 191325Z 34013KT M03/M06 A3022 RMK A01 T10321060  RH  081%=      5-min Rain = 0
KPD1 191326Z 34013KT M03/M06 A3022 RMK A01 T10321061  RH  081%=      5-min Rain = 0
KPD1 191327Z 34016KT M03/M06 A3022 RMK A01 T10321061  RH  081%=      5-min Rain = 0
KPD1 191328Z 34014KT M03/M06 A3022 RMK A01 T10321061  RH  081%=      5-min Rain = 0
KPD1 191329Z 34015KT M03/M06 A3022 RMK A01 T10321061  RH  081%=      5-min Rain = 0
KPD1 191330Z 33019KT M03/M06 A3022 RMK A01 T10321060  RH  081%=      5-min Rain = 0
KPD1 191331Z 34018KT M03/M06 A3022 RMK A01 T10311059  RH  081%=      5-min Rain = 0
KPD1 191332Z 34016KT M03/M06 A3022 RMK A01 T10301059  RH  081%=      5-min Rain = 0
KPD1 191333Z 34016G23KT M03/M06 A3022 RMK A01 T10301059  RH  080%=      5-min Rain = 0
KPD1 191334Z 34014G19KT M03/M06 A3022 RMK A01 T10291059  RH  080%=      5-min Rain = 0
KPD1 191335Z 34017G22KT M03/M06 A3022 RMK A01 T10301060  RH  080%=      5-min Rain = 0
KPD1 191336Z 35017G22KT M03/M06 A3022 RMK A01 T10291059  RH  080%=      5-min Rain = 0
KPD1 191337Z 34014G20KT M03/M06 A3022 RMK A01 T10291060  RH  080%=      5-min Rain = 0
KPD1 191338Z 35014G19KT M03/M06 A3022 RMK A01 T10301060  RH  080%=      5-min Rain = 0
KPD1 191339Z 34014G19KT M03/M06 A3022 RMK A01 T10301060  RH  080%=      5-min Rain = 0
KPD1 191340Z 34014KT M03/M06 A3022 RMK A01 T10301061  RH  080%=      5-min Rain = 0
KPD1 191341Z 34013KT M03/M06 A3022 RMK A01 T10311061  RH  080%=      5-min Rain = 0
KPD1 191342Z 34017KT M03/M06 A3022 RMK A01 T10321061  RH  080%=      5-min Rain = 0
KPD1 191343Z 34016KT M03/M06 A3022 RMK A01 T10321061  RH  080%=      5-min Rain = 0
KPD1 191344Z 34015G20KT M03/M06 A3022 RMK A01 T10321061  RH  080%=      5-min Rain = 0
KPD1 191345Z 34014KT M03/M06 A3022 RMK A01 T10321061  RH  080%=      5-min Rain = 0
KPD1 191346Z 34014KT M03/M06 A3023 RMK A01 T10321062  RH  080%=      5-min Rain = 0
KPD1 191347Z 35016G21KT M03/M06 A3023 RMK A01 T10331062  RH  080%=      5-min Rain = 0
KPD1 191348Z 34013KT M03/M06 A3023 RMK A01 T10331062  RH  081%=      5-min Rain = 0
KPD1 191349Z 34012KT M03/M06 A3023 RMK A01 T10341062  RH  081%=      5-min Rain = 0
KPD1 191350Z 34014G19KT M03/M06 A3023 RMK A01 T10341063  RH  081%=      5-min Rain = 0
KPD1 191351Z 34016G22KT M04/M06 A3023 RMK A01 T10351063  RH  081%=      5-min Rain = 0
KPD1 191352Z 34015KT M03/M06 A3023 RMK A01 T10341062  RH  081%=      5-min Rain = 0
KPD1 191353Z 34015G22KT M03/M06 A3023 RMK A01 T10341062  RH  081%=      5-min Rain = 0
KPD1 191354Z 34014G19KT M04/M06 A3023 RMK A01 T10351063  RH  081%=      5-min Rain = 0
KPD1 191355Z 34013G18KT M04/M06 A3023 RMK A01 T10351063  RH  081%=      5-min Rain = 0
KPD1 191356Z 34014KT M04/M06 A3023 RMK A01 T10351063  RH  081%=      5-min Rain = 0
KPD1 191357Z 34012KT M04/M06 A3024 RMK A01 T10361063  RH  081%=      5-min Rain = 0
KPD1 191358Z 34013KT M04/M06 A3024 RMK A01 T10361063  RH  081%=      5-min Rain = 0
KPD1 191359Z 34012KT M04/M06 A3024 RMK A01 T10361063  RH  081%=      5-min Rain = 0
KPD1 191400Z 34010KT M04/M06 A3024 RMK A01 T10361063  RH  082%=      5-min Rain = 0
KPD1 191401Z 34010KT M04/M06 A3024 RMK A01 T10371064  RH  082%=      5-min Rain = 0
KPD1 191402Z 33012KT M04/M06 A3024 RMK A01 T10371063  RH  082%=      5-min Rain = 0
KPD1 191403Z 34012KT M04/M06 A3024 RMK A01 T10371063  RH  082%=      5-min Rain = 0
KPD1 191404Z 34011KT M04/M06 A3024 RMK A01 T10371063  RH  082%=      5-min Rain = 0
KPD1 191405Z 33011KT M04/M06 A3024 RMK A01 T10371064  RH  082%=      5-min Rain = 0
KPD1 191406Z 33010KT M04/M06 A3024 RMK A01 T10371064  RH  082%=      5-min Rain = 0
KPD1 191407Z 33013KT M04/M06 A3024 RMK A01 T10371064  RH  082%=      5-min Rain = 0
KPD1 191408Z 33013KT M04/M06 A3024 RMK A01 T10371064  RH  082%=      5-min Rain = 0
KPD1 191409Z 33011KT M04/M06 A3024 RMK A01 T10361063  RH  082%=      5-min Rain = 0
KPD1 191410Z 34011KT M04/M06 A3025 RMK A01 T10371064  RH  081%=      5-min Rain = 0
KPD1 191411Z 34012KT M04/M06 A3025 RMK A01 T10371064  RH  081%=      5-min Rain = 0
KPD1 191412Z 33014KT M04/M06 A3025 RMK A01 T10371064  RH  081%=      5-min Rain = 0
KPD1 191413Z 33011KT M04/M06 A3025 RMK A01 T10361064  RH  081%=      5-min Rain = 0
KPD1 191414Z 33009KT M04/M06 A3025 RMK A01 T10361064  RH  081%=      5-min Rain = 0
KPD1 191415Z 33011KT M04/M06 A3025 RMK A01 T10361064  RH  081%=      5-min Rain = 0
KPD1 191416Z 33011KT M04/M06 A3025 RMK A01 T10361064  RH  081%=      5-min Rain = 0
KPD1 191417Z 33010KT M04/M06 A3025 RMK A01 T10361064  RH  081%=      5-min Rain = 0
KPD1 191418Z 33011G16KT M04/M06 A3025 RMK A01 T10361064  RH  081%=      5-min Rain = 0
KPD1 191419Z 33011G16KT M04/M06 A3025 RMK A01 T10361064  RH  081%=      5-min Rain = 0
KPD1 191420Z 33011KT M04/M06 A3025 RMK A01 T10351064  RH  081%=      5-min Rain = 0
KPD1 191421Z 33011KT M04/M06 A3025 RMK A01 T10351064  RH  081%=      5-min Rain = 0
KPD1 191422Z 33011KT M04/M06 A3025 RMK A01 T10351063  RH  081%=      5-min Rain = 0
KPD1 191423Z 33013KT M04/M06 A3026 RMK A01 T10351064  RH  080%=      5-min Rain = 0
KPD1 191424Z 33012KT M04/M06 A3026 RMK A01 T10351064  RH  080%=      5-min Rain = 0
KPD1 191425Z 33012KT M03/M06 A3026 RMK A01 T10341063  RH  080%=      5-min Rain = 0
KPD1 191426Z 33013KT M03/M06 A3026 RMK A01 T10341063  RH  080%=      5-min Rain = 0
KPD1 191427Z 33011KT M03/M06 A3026 RMK A01 T10341064  RH  080%=      5-min Rain = 0
KPD1 191428Z 33013KT M03/M06 A3026 RMK A01 T10331063  RH  080%=      5-min Rain = 0
KPD1 191429Z 33012KT M03/M06 A3026 RMK A01 T10331063  RH  080%=      5-min Rain = 0
KPD1 191430Z 33011G16KT M03/M06 A3026 RMK A01 T10331063  RH  080%=      5-min Rain = 0
KPD1 191431Z 33011KT M03/M06 A3026 RMK A01 T10321063  RH  080%=      5-min Rain = 0
KPD1 191432Z 33011KT M03/M06 A3026 RMK A01 T10321063  RH  079%=      5-min Rain = 0
KPD1 191433Z 33012G18KT M03/M06 A3026 RMK A01 T10321063  RH  079%=      5-min Rain = 0
KPD1 191434Z 33012KT M03/M06 A3026 RMK A01 T10311062  RH  079%=      5-min Rain = 0
KPD1 191435Z 33012G17KT M03/M06 A3026 RMK A01 T10311062  RH  079%=      5-min Rain = 0
KPD1 191436Z 33012KT M03/M06 A3026 RMK A01 T10311062  RH  079%=      5-min Rain = 0
KPD1 191437Z 33012KT M03/M06 A3026 RMK A01 T10301062  RH  079%=      5-min Rain = 0
KPD1 191438Z 34011KT M03/M06 A3026 RMK A01 T10301062  RH  079%=      5-min Rain = 0
KPD1 191439Z 33014KT M03/M06 A3027 RMK A01 T10301062  RH  079%=      5-min Rain = 0
KPD1 191440Z 33013KT M03/M06 A3027 RMK A01 T10281060  RH  079%=      5-min Rain = 0
KPD1 191441Z 34013KT M03/M06 A3027 RMK A01 T10281060  RH  078%=      5-min Rain = 0
KPD1 191442Z 33012KT M03/M06 A3027 RMK A01 T10281061  RH  078%=      5-min Rain = 0
KPD1 191443Z 34011G16KT M03/M06 A3027 RMK A01 T10281061  RH  078%=      5-min Rain = 0
KPD1 191444Z 34013KT M03/M06 A3027 RMK A01 T10271060  RH  078%=      5-min Rain = 0
KPD1 191445Z 34011KT M03/M06 A3027 RMK A01 T10271060  RH  078%=      5-min Rain = 0
KPD1 191446Z 33012G17KT M03/M06 A3027 RMK A01 T10261059  RH  078%=      5-min Rain = 0
KPD1 191447Z 34012G17KT M03/M06 A3027 RMK A01 T10261060  RH  077%=      5-min Rain = 0
KPD1 191448Z 33013KT M03/M06 A3027 RMK A01 T10251060  RH  077%=      5-min Rain = 0
KPD1 191449Z 33011KT M02/M06 A3028 RMK A01 T10241059  RH  077%=      5-min Rain = 0
KPD1 191450Z 33013KT M02/M06 A3028 RMK A01 T10241059  RH  077%=      5-min Rain = 0
KPD1 191451Z 33010KT M02/M06 A3028 RMK A01 T10241059  RH  077%=      5-min Rain = 0
KPD1 191452Z 33012KT M02/M06 A3028 RMK A01 T10231059  RH  077%=      5-min Rain = 0
KPD1 191453Z 34015KT M02/M06 A3028 RMK A01 T10231059  RH  076%=      5-min Rain = 0
KPD1 191454Z 35010G15KT M02/M06 A3028 RMK A01 T10221059  RH  076%=      5-min Rain = 0
KPD1 191455Z 34013KT M02/M06 A3028 RMK A01 T10221058  RH  076%=      5-min Rain = 0
KPD1 191456Z 33014KT M02/M06 A3028 RMK A01 T10221059  RH  076%=      5-min Rain = 0
KPD1 191457Z 34013KT M02/M06 A3028 RMK A01 T10221059  RH  076%=      5-min Rain = 0
KPD1 191458Z 34012KT M02/M06 A3028 RMK A01 T10211058  RH  076%=      5-min Rain = 0
KPD1 191459Z 34012G17KT M02/M06 A3028 RMK A01 T10211058  RH  076%=      5-min Rain = 0
KPD1 191500Z 34014KT M02/M06 A3028 RMK A01 T10201058  RH  075%=      5-min Rain = 0
KPD1 191501Z 34016KT M02/M06 A3028 RMK A01 T10201058  RH  075%=      5-min Rain = 0
KPD1 191502Z 34013G21KT M02/M06 A3028 RMK A01 T10201058  RH  075%=      5-min Rain = 0
KPD1 191503Z 34014G23KT M02/M06 A3028 RMK A01 T10201058  RH  075%=      5-min Rain = 0
KPD1 191504Z 34011KT M02/M06 A3028 RMK A01 T10191058  RH  075%=      5-min Rain = 0
KPD1 191505Z 35011KT M02/M06 A3028 RMK A01 T10191058  RH  075%=      5-min Rain = 0
KPD1 191506Z 34013KT M02/M06 A3028 RMK A01 T10191057  RH  075%=      5-min Rain = 0
KPD1 191507Z 34012G18KT M02/M06 A3028 RMK A01 T10191058  RH  075%=      5-min Rain = 0
KPD1 191508Z 34012KT M02/M06 A3028 RMK A01 T10181057  RH  075%=      5-min Rain = 0
KPD1 191509Z 35013KT M02/M06 A3029 RMK A01 T10181057  RH  074%=      5-min Rain = 0
KPD1 191510Z 35013G18KT M02/M06 A3029 RMK A01 T10181057  RH  074%=      5-min Rain = 0
KPD1 191511Z 35012KT M02/M06 A3029 RMK A01 T10181057  RH  074%=      5-min Rain = 0
KPD1 191512Z 34011KT M02/M06 A3029 RMK A01 T10171057  RH  074%=      5-min Rain = 0
KPD1 191513Z 34013KT M02/M06 A3029 RMK A01 T10171057  RH  074%=      5-min Rain = 0
KPD1 191514Z 35012KT M02/M06 A3029 RMK A01 T10171056  RH  074%=      5-min Rain = 0
KPD1 191515Z 34012KT M02/M06 A3029 RMK A01 T10161056  RH  074%=      5-min Rain = 0
KPD1 191516Z 34011KT M02/M06 A3029 RMK A01 T10161056  RH  074%=      5-min Rain = 0
KPD1 191517Z 34013KT M02/M06 A3029 RMK A01 T10151056  RH  074%=      5-min Rain = 0
KPD1 191518Z 34014KT M02/M06 A3029 RMK A01 T10151056  RH  074%=      5-min Rain = 0
KPD1 191519Z 35013KT M02/M06 A3029 RMK A01 T10151056  RH  074%=      5-min Rain = 0
KPD1 191520Z 35012KT M02/M06 A3029 RMK A01 T10151056  RH  074%=      5-min Rain = 0
KPD1 191521Z 34013KT M02/M06 A3029 RMK A01 T10151055  RH  074%=      5-min Rain = 0
KPD1 191522Z 34015KT M01/M06 A3029 RMK A01 T10141055  RH  074%=      5-min Rain = 0
KPD1 191523Z 35008KT M01/M06 A3029 RMK A01 T10141055  RH  074%=      5-min Rain = 0
KPD1 191524Z 35013KT M01/M05 A3029 RMK A01 T10131054  RH  074%=      5-min Rain = 0
KPD1 191525Z 36011KT M01/M05 A3029 RMK A01 T10131054  RH  074%=      5-min Rain = 0
KPD1 191526Z 36012KT M01/M05 A3029 RMK A01 T10131054  RH  074%=      5-min Rain = 0
KPD1 191527Z 36011KT M01/M05 A3029 RMK A01 T10121054  RH  073%=      5-min Rain = 0
KPD1 191528Z 35012KT M01/M05 A3029 RMK A01 T10121054  RH  073%=      5-min Rain = 0
KPD1 191529Z 34010KT M01/M05 A3029 RMK A01 T10121054  RH  073%=      5-min Rain = 0
KPD1 191530Z 35010KT M01/M05 A3029 RMK A01 T10121054  RH  073%=      5-min Rain = 0
KPD1 191531Z 35012KT M01/M05 A3029 RMK A01 T10111053  RH  073%=      5-min Rain = 0
KPD1 191532Z 35013KT M01/M05 A3029 RMK A01 T10111053  RH  073%=      5-min Rain = 0
KPD1 191533Z 35014KT M01/M05 A3029 RMK A01 T10111053  RH  073%=      5-min Rain = 0
KPD1 191534Z 35010KT M01/M05 A3029 RMK A01 T10111053  RH  073%=      5-min Rain = 0
KPD1 191535Z 34012KT M01/M05 A3029 RMK A01 T10111052  RH  073%=      5-min Rain = 0
KPD1 191536Z 35009KT M01/M05 A3029 RMK A01 T10111053  RH  073%=      5-min Rain = 0
KPD1 191537Z 35010KT M01/M05 A3029 RMK A01 T10101051  RH  074%=      5-min Rain = 0
KPD1 191538Z 35010KT M01/M05 A3029 RMK A01 T10091050  RH  074%=      5-min Rain = 0
KPD1 191539Z 34008KT M01/M05 A3029 RMK A01 T10081050  RH  073%=      5-min Rain = 0
KPD1 191540Z 34010KT M01/M05 A3029 RMK A01 T10071049  RH  073%=      5-min Rain = 0
KPD1 191541Z 35008KT M01/M05 A3029 RMK A01 T10071050  RH  073%=      5-min Rain = 0
KPD1 191542Z 35012G17KT M01/M05 A3029 RMK A01 T10071050  RH  073%=      5-min Rain = 0
KPD1 191543Z 35014KT M01/M05 A3029 RMK A01 T10071051  RH  072%=      5-min Rain = 0
KPD1 191544Z 35009G14KT M01/M05 A3029 RMK A01 T10081052  RH  072%=      5-min Rain = 0
KPD1 191545Z 34013KT M01/M05 A303 RMK A01 T10081051  RH  073%=      5-min Rain = 0
KPD1 191546Z 34009KT M01/M05 A303 RMK A01 T10071050  RH  073%=      5-min Rain = 0
KPD1 191547Z 34008KT M01/M05 A3029 RMK A01 T10061049  RH  073%=      5-min Rain = 0
KPD1 191548Z 36011KT M01/M05 A3029 RMK A01 T10051048  RH  073%=      5-min Rain = 0
KPD1 191549Z 35010KT M01/M05 A303 RMK A01 T10051049  RH  072%=      5-min Rain = 0
KPD1 191550Z 36011KT M00/M05 A303 RMK A01 T10041049  RH  072%=      5-min Rain = 0
KPD1 191551Z 35012KT M00/M05 A303 RMK A01 T10041049  RH  072%=      5-min Rain = 0
KPD1 191552Z 34010G15KT M00/M05 A303 RMK A01 T10041048  RH  072%=      5-min Rain = 0
KPD1 191553Z 34013G18KT M00/M05 A303 RMK A01 T10041049  RH  072%=      5-min Rain = 0
KPD1 191554Z 34010KT M00/M05 A303 RMK A01 T10041048  RH  072%=      5-min Rain = 0
KPD1 191555Z 34008KT M00/M05 A303 RMK A01 T10031047  RH  072%=      5-min Rain = 0
KPD1 191556Z 33012G17KT M00/M05 A303 RMK A01 T10011045  RH  072%=      5-min Rain = 0
KPD1 191557Z 34010G15KT M00/M05 A303 RMK A01 T10021047  RH  072%=      5-min Rain = 0
KPD1 191558Z 34015KT M00/M05 A303 RMK A01 T10021046  RH  072%=      5-min Rain = 0
KPD1 191559Z 34013KT M00/M05 A303 RMK A01 T10021047  RH  072%=      5-min Rain = 0
KPD1 191600Z 34014G19KT M00/M05 A303 RMK A01 T10031048  RH  072%=      5-min Rain = 0
KPD1 191601Z 33013G18KT M00/M05 A303 RMK A01 T10031048  RH  072%=      5-min Rain = 0
KPD1 191602Z 33013KT M00/M05 A303 RMK A01 T10031048  RH  072%=      5-min Rain = 0
KPD1 191603Z 33014KT M00/M05 A303 RMK A01 T10041048  RH  072%=      5-min Rain = 0
KPD1 191604Z 33012KT M00/M05 A303 RMK A01 T10031048  RH  072%=      5-min Rain = 0
KPD1 191605Z 34016KT M00/M05 A303 RMK A01 T10031047  RH  072%=      5-min Rain = 0
KPD1 191606Z 34014G19KT M00/M05 A303 RMK A01 T10031049  RH  071%=      5-min Rain = 0
KPD1 191607Z 34012KT M00/M05 A303 RMK A01 T10031048  RH  072%=      5-min Rain = 0
KPD1 191608Z 34013G19KT M00/M05 A303 RMK A01 T10031047  RH  072%=      5-min Rain = 0
KPD1 191609Z 33015G21KT M00/M05 A303 RMK A01 T10031048  RH  072%=      5-min Rain = 0
KPD1 191610Z 34019KT M00/M05 A303 RMK A01 T10021048  RH  071%=      5-min Rain = 0
KPD1 191611Z 34018G23KT M00/M05 A303 RMK A01 T10041051  RH  071%=      5-min Rain = 0
KPD1 191612Z 34017G23KT M01/M05 A303 RMK A01 T10061051  RH  071%=      5-min Rain = 0
KPD1 191613Z 35012KT M01/M05 A303 RMK A01 T10051050  RH  072%=      5-min Rain = 0
KPD1 191614Z 34013G18KT M01/M05 A3031 RMK A01 T10051049  RH  072%=      5-min Rain = 0
KPD1 191615Z 35013G19KT M00/M05 A3031 RMK A01 T10041048  RH  072%=      5-min Rain = 0
KPD1 191616Z 34012G20KT M00/M05 A3031 RMK A01 T10041048  RH  072%=      5-min Rain = 0
KPD1 191617Z 35013KT M00/M05 A3031 RMK A01 T10031047  RH  072%=      5-min Rain = 0
KPD1 191618Z 35014KT M00/M05 A3031 RMK A01 T10031048  RH  072%=      5-min Rain = 0
KPD1 191619Z 35012KT M00/M05 A3031 RMK A01 T10031048  RH  072%=      5-min Rain = 0
KPD1 191620Z 35014KT M00/M05 A3031 RMK A01 T10031047  RH  072%=      5-min Rain = 0
KPD1 191621Z 34012KT M00/M05 A3031 RMK A01 T10021047  RH  072%=      5-min Rain = 0
KPD1 191622Z 34014G19KT M00/M05 A3031 RMK A01 T10021047  RH  072%=      5-min Rain = 0
KPD1 191623Z 33014G19KT M00/M05 A3031 RMK A01 T10021047  RH  072%=      5-min Rain = 0
KPD1 191624Z 33015G20KT M00/M05 A3031 RMK A01 T10021047  RH  072%=      5-min Rain = 0
KPD1 191625Z 34013KT M00/M05 A3031 RMK A01 T10021046  RH  072%=      5-min Rain = 0
KPD1 191626Z 34013KT M00/M05 A3032 RMK A01 T10011045  RH  072%=      5-min Rain = 0
KPD1 191627Z 33012KT 00/05 A3032 RMK A01 T00-00-46  RH  072%=      5-min Rain = 0
KPD1 191628Z 33013KT 00/M05 A3032 RMK A01 T00011045  RH  071%=      5-min Rain = 0
KPD1 191629Z 33013KT 00/M05 A3032 RMK A01 T00011045  RH  071%=      5-min Rain = 0
KPD1 191630Z 34011KT 00/M04 A3032 RMK A01 T00011044  RH  071%=      5-min Rain = 0
KPD1 191631Z 33013KT 00/M04 A3032 RMK A01 T00011044  RH  071%=      5-min Rain = 0
KPD1 191632Z 33014KT 00/M04 A3032 RMK A01 T00011044  RH  071%=      5-min Rain = 0
KPD1 191633Z 34010KT 00/M04 A3032 RMK A01 T00011044  RH  071%=      5-min Rain = 0
KPD1 191634Z 33013KT 00/M04 A3032 RMK A01 T00021043  RH  072%=      5-min Rain = 0
KPD1 191635Z 34012KT 00/M04 A3032 RMK A01 T00031043  RH  072%=      5-min Rain = 0
KPD1 191636Z 34015KT 00/M04 A3032 RMK A01 T00041042  RH  072%=      5-min Rain = 0
KPD1 191637Z 34015KT 00/M04 A3032 RMK A01 T00031044  RH  071%=      5-min Rain = 0
KPD1 191638Z 34016KT 00/M05 A3032 RMK A01 T00021045  RH  071%=      5-min Rain = 0
KPD1 191639Z 34016KT 00/M05 A3032 RMK A01 T00011046  RH  070%=      5-min Rain = 0
KPD1 191640Z 34011KT 00/M05 A3032 RMK A01 T00011047  RH  070%=      5-min Rain = 0
KPD1 191641Z 34011G19KT 00/M05 A3033 RMK A01 T00011045  RH  071%=      5-min Rain = 0
KPD1 191642Z 34014KT 00/M04 A3032 RMK A01 T00021044  RH  071%=      5-min Rain = 0
KPD1 191643Z 34008G13KT 00/M05 A3033 RMK A01 T00011045  RH  071%=      5-min Rain = 0
KPD1 191644Z 34010KT 00/M04 A3033 RMK A01 T00021043  RH  072%=      5-min Rain = 0
KPD1 191645Z 33012KT 00/M04 A3033 RMK A01 T00041040  RH  072%=      5-min Rain = 0
KPD1 191646Z 33011KT 01/M04 A3033 RMK A01 T00051041  RH  071%=      5-min Rain = 0
KPD1 191647Z 34008KT 01/M04 A3033 RMK A01 T00051040  RH  072%=      5-min Rain = 0
KPD1 191648Z 33013KT 01/M04 A3033 RMK A01 T00081037  RH  072%=      5-min Rain = 0
KPD1 191649Z 32012G17KT 01/M04 A3033 RMK A01 T00081040  RH  071%=      5-min Rain = 0
KPD1 191650Z 34011KT 01/M04 A3033 RMK A01 T00071040  RH  071%=      5-min Rain = 0
KPD1 191651Z 34013KT 01/M04 A3033 RMK A01 T00071040  RH  071%=      5-min Rain = 0
KPD1 191652Z 34012KT 01/M04 A3033 RMK A01 T00081041  RH  070%=      5-min Rain = 0
KPD1 191653Z 34015KT 01/M04 A3033 RMK A01 T00071042  RH  070%=      5-min Rain = 0
KPD1 191654Z 34014KT 01/M04 A3033 RMK A01 T00051044  RH  069%=      5-min Rain = 0
KPD1 191655Z 33013KT 00/M04 A3033 RMK A01 T00041044  RH  070%=      5-min Rain = 0.01
KPD1 191656Z 34012KT 00/M04 A3033 RMK A01 T00041043  RH  071%=      5-min Rain = 0
KPD1 191657Z 35010G15KT 01/M04 A3033 RMK A01 T00051042  RH  071%=      5-min Rain = 0
KPD1 191658Z 36014KT 01/M04 A3033 RMK A01 T00061041  RH  071%=      5-min Rain = 0
KPD1 191659Z 35012KT 01/M04 A3033 RMK A01 T00061043  RH  070%=      5-min Rain = 0
KPD1 191700Z 36010G15KT 01/M04 A3033 RMK A01 T00051042  RH  070%=      5-min Rain = 0
KPD1 191701Z 35010KT 01/M04 A3033 RMK A01 T00061041  RH  071%=      5-min Rain = 0
KPD1 191702Z 35011G16KT 01/M04 A3033 RMK A01 T00061040  RH  071%=      5-min Rain = 0
KPD1 191703Z 34013KT 01/M04 A3033 RMK A01 T00071042  RH  070%=      5-min Rain = 0
KPD1 191704Z 35011KT 01/M04 A3033 RMK A01 T00061041  RH  070%=      5-min Rain = 0
KPD1 191705Z 35010KT 01/M04 A3033 RMK A01 T00071039  RH  071%=      5-min Rain = 0
KPD1 191706Z 35012KT 01/M04 A3033 RMK A01 T00091038  RH  071%=      5-min Rain = 0.01
KPD1 191707Z 36013KT 01/M04 A3033 RMK A01 T00091038  RH  071%=      5-min Rain = 0
KPD1 191708Z 35014KT 01/M04 A3033 RMK A01 T00091040  RH  070%=      5-min Rain = 0
KPD1 191709Z 36012KT 01/M04 A3033 RMK A01 T00081041  RH  070%=      5-min Rain = 0
KPD1 191710Z 35012KT 01/M04 A3033 RMK A01 T00081040  RH  070%=      5-min Rain = 0
KPD1 191711Z 34011G16KT 01/M04 A3033 RMK A01 T00081041  RH  070%=      5-min Rain = 0
KPD1 191712Z 34011KT 01/M04 A3033 RMK A01 T00081041  RH  070%=      5-min Rain = 0
KPD1 191713Z 35007KT 01/M04 A3033 RMK A01 T00081040  RH  070%=      5-min Rain = 0
KPD1 191714Z 34011KT 01/M04 A3033 RMK A01 T00101036  RH  071%=      5-min Rain = 0
KPD1 191715Z 34011KT 01/M04 A3033 RMK A01 T00111037  RH  070%=      5-min Rain = 0
KPD1 191716Z 33014KT 01/M04 A3033 RMK A01 T00121037  RH  070%=      5-min Rain = 0
KPD1 191717Z 33013KT 01/M04 A3033 RMK A01 T00121038  RH  069%=      5-min Rain = 0
KPD1 191718Z 35012G19KT 01/M04 A3033 RMK A01 T00121038  RH  069%=      5-min Rain = 0
KPD1 191719Z 34012KT 01/M04 A3033 RMK A01 T00111040  RH  069%=      5-min Rain = 0
KPD1 191720Z 34010G15KT 01/M04 A3033 RMK A01 T00111040  RH  069%=      5-min Rain = 0
KPD1 191721Z 35011KT 01/M04 A3033 RMK A01 T00111038  RH  070%=      5-min Rain = 0
KPD1 191722Z 34014KT 01/M04 A3033 RMK A01 T00131038  RH  069%=      5-min Rain = 0
KPD1 191723Z 34012G17KT 01/M04 A3033 RMK A01 T00121041  RH  068%=      5-min Rain = 0
KPD1 191724Z 33013KT 01/M04 A3033 RMK A01 T00111042  RH  068%=      5-min Rain = 0
KPD1 191725Z 34012KT 01/M04 A3033 RMK A01 T00111040  RH  069%=      5-min Rain = 0
KPD1 191726Z 34011KT 01/M04 A3033 RMK A01 T00121038  RH  069%=      5-min Rain = 0
KPD1 191727Z 34010KT 01/M04 A3033 RMK A01 T00131039  RH  069%=      5-min Rain = 0
KPD1 191728Z 35010KT 01/M04 A3033 RMK A01 T00141036  RH  069%=      5-min Rain = 0
KPD1 191729Z 34011KT 02/M04 A3033 RMK A01 T00151037  RH  069%=      5-min Rain = 0
KPD1 191730Z 33014KT 02/M04 A3033 RMK A01 T00151038  RH  068%=      5-min Rain = 0
KPD1 191731Z 35014KT 01/M04 A3033 RMK A01 T00131040  RH  068%=      5-min Rain = 0
KPD1 191732Z 34010KT 01/M04 A3034 RMK A01 T00131039  RH  068%=      5-min Rain = 0
KPD1 191733Z 36009KT 01/M04 A3033 RMK A01 T00131038  RH  069%=      5-min Rain = 0
KPD1 191734Z 33008KT 02/M04 A3033 RMK A01 T00151036  RH  069%=      5-min Rain = 0
KPD1 191735Z 34011KT 02/M04 A3033 RMK A01 T00161035  RH  069%=      5-min Rain = 0
KPD1 191736Z 34010KT 02/M04 A3033 RMK A01 T00171036  RH  068%=      5-min Rain = 0
KPD1 191737Z 35011KT 02/M04 A3033 RMK A01 T00171037  RH  068%=      5-min Rain = 0
KPD1 191738Z 34008KT 02/M04 A3033 RMK A01 T00171035  RH  068%=      5-min Rain = 0
KPD1 191739Z 34009G14KT 02/M03 A3033 RMK A01 T00201031  RH  069%=      5-min Rain = 0
KPD1 191740Z 34012KT 02/M03 A3033 RMK A01 T00211032  RH  068%=      5-min Rain = 0
KPD1 191741Z 35013KT 02/M04 A3033 RMK A01 T00191036  RH  067%=      5-min Rain = 0
KPD1 191742Z 35009KT 02/M04 A3033 RMK A01 T00191035  RH  067%=      5-min Rain = 0
KPD1 191743Z 35012G17KT 02/M03 A3033 RMK A01 T00191034  RH  068%=      5-min Rain = 0
KPD1 191744Z 36012G17KT 02/M04 A3033 RMK A01 T00191036  RH  067%=      5-min Rain = 0
KPD1 191745Z 35012KT 02/M04 A3033 RMK A01 T00181036  RH  067%=      5-min Rain = 0
KPD1 191746Z 35010KT 02/M04 A3033 RMK A01 T00181036  RH  067%=      5-min Rain = 0
KPD1 191747Z 36012KT 02/M04 A3033 RMK A01 T00181036  RH  067%=      5-min Rain = 0
KPD1 191748Z 34016KT 02/M04 A3033 RMK A01 T00181036  RH  067%=      5-min Rain = 0
KPD1 191749Z 33013KT 02/M04 A3033 RMK A01 T00171039  RH  066%=      5-min Rain = 0
KPD1 191750Z 34012KT 02/M04 A3033 RMK A01 T00161039  RH  067%=      5-min Rain = 0
KPD1 191751Z 33015KT 02/M04 A3033 RMK A01 T00171037  RH  067%=      5-min Rain = 0
KPD1 191752Z 33016KT 02/M04 A3033 RMK A01 T00161040  RH  066%=      5-min Rain = 0
KPD1 191753Z 33013G18KT 02/M04 A3033 RMK A01 T00151039  RH  067%=      5-min Rain = 0
KPD1 191754Z 33009KT 02/M04 A3033 RMK A01 T00171036  RH  068%=      5-min Rain = 0
KPD1 191755Z 35009G14KT 02/M03 A3033 RMK A01 T00201032  RH  068%=      5-min Rain = 0
KPD1 191756Z 35011KT 02/M03 A3033 RMK A01 T00231030  RH  068%=      5-min Rain = 0
KPD1 191757Z 33009KT 02/M03 A3033 RMK A01 T00241031  RH  067%=      5-min Rain = 0
KPD1 191758Z 35010KT 03/M03 A3033 RMK A01 T00261028  RH  067%=      5-min Rain = 0
KPD1 191759Z 35009KT 03/M03 A3033 RMK A01 T00271029  RH  067%=      5-min Rain = 0
KPD1 191800Z 35011KT 03/M03 A3033 RMK A01 T00261032  RH  066%=      5-min Rain = 0
KPD1 191801Z 33010KT 02/M03 A3033 RMK A01 T00241032  RH  066%=      5-min Rain = 0
KPD1 191802Z 35007KT 02/M03 A3033 RMK A01 T00241031  RH  067%=      5-min Rain = 0
KPD1 191803Z 35012G17KT 03/M03 A3033 RMK A01 T00261029  RH  067%=      5-min Rain = 0
KPD1 191804Z 35013KT 03/M03 A3033 RMK A01 T00251032  RH  066%=      5-min Rain = 0
KPD1 191805Z 35011KT 02/M03 A3033 RMK A01 T00231034  RH  066%=      5-min Rain = 0
KPD1 191806Z 35012KT 02/M03 A3033 RMK A01 T00221034  RH  066%=      5-min Rain = 0
KPD1 191807Z 36012KT 02/M03 A3033 RMK A01 T00221033  RH  067%=      5-min Rain = 0
KPD1 191808Z 35011KT 02/M03 A3033 RMK A01 T00221033  RH  067%=      5-min Rain = 0
KPD1 191809Z 36011KT 02/M03 A3033 RMK A01 T00221033  RH  067%=      5-min Rain = 0
KPD1 191810Z 34009G14KT 02/M03 A3033 RMK A01 T00241029  RH  068%=      5-min Rain = 0
KPD1 191811Z 35009KT 03/M03 A3033 RMK A01 T00251029  RH  067%=      5-min Rain = 0
KPD1 191812Z 35008KT 03/M03 A3033 RMK A01 T00261029  RH  067%=      5-min Rain = 0
KPD1 191813Z 34011KT 03/M03 A3033 RMK A01 T00281028  RH  067%=      5-min Rain = 0
KPD1 191814Z 35012KT 03/M03 A3033 RMK A01 T00261033  RH  065%=      5-min Rain = 0
KPD1 191815Z 35010G15KT 02/M04 A3033 RMK A01 T00231035  RH  065%=      5-min Rain = 0
KPD1 191816Z 34012KT 02/M03 A3033 RMK A01 T00221034  RH  066%=      5-min Rain = 0
KPD1 191817Z 35011KT 02/M03 A3033 RMK A01 T00221033  RH  067%=      5-min Rain = 0
KPD1 191818Z 35011KT 02/M03 A3033 RMK A01 T00241031  RH  067%=      5-min Rain = 0
KPD1 191819Z 34012KT 03/M03 A3033 RMK A01 T00251032  RH  066%=      5-min Rain = 0
KPD1 191820Z 35010KT 02/M03 A3033 RMK A01 T00241032  RH  066%=      5-min Rain = 0
KPD1 191821Z 35011KT 02/M03 A3032 RMK A01 T00241032  RH  066%=      5-min Rain = 0
KPD1 191822Z 35009KT 03/M03 A3032 RMK A01 T00251032  RH  066%=      5-min Rain = 0
KPD1 191823Z 36012KT 03/M03 A3032 RMK A01 T00261031  RH  066%=      5-min Rain = 0
KPD1 191824Z 36013KT 03/M03 A3032 RMK A01 T00261032  RH  065%=      5-min Rain = 0
KPD1 191825Z 35010KT 03/M03 A3032 RMK A01 T00261033  RH  065%=      5-min Rain = 0
KPD1 191826Z 34010KT 03/M03 A3032 RMK A01 T00261032  RH  066%=      5-min Rain = 0
KPD1 191827Z 34010KT 03/M03 A3032 RMK A01 T00261031  RH  066%=      5-min Rain = 0
KPD1 191828Z 35009KT 03/M03 A3032 RMK A01 T00271031  RH  066%=      5-min Rain = 0
KPD1 191829Z 36011KT 03/M03 A3032 RMK A01 T00281031  RH  065%=      5-min Rain = 0
KPD1 191830Z 36013KT 03/M03 A3032 RMK A01 T00291031  RH  065%=      5-min Rain = 0
KPD1 191831Z 00009KT 03/M03 A3032 RMK A01 T00291031  RH  065%=      5-min Rain = 0
KPD1 191832Z 35009KT 03/M03 A3032 RMK A01 T00301029  RH  065%=      5-min Rain = 0
KPD1 191833Z 36007KT 03/M03 A3032 RMK A01 T00301030  RH  065%=      5-min Rain = 0
KPD1 191834Z 36007KT 03/M03 A3032 RMK A01 T00311028  RH  065%=      5-min Rain = 0
KPD1 191835Z 36009KT 03/M03 A3032 RMK A01 T00331028  RH  064%=      5-min Rain = 0
KPD1 191836Z 36007KT 03/M03 A3032 RMK A01 T00321030  RH  064%=      5-min Rain = 0
KPD1 191837Z 36010KT 03/M03 A3032 RMK A01 T00341027  RH  064%=      5-min Rain = 0
KPD1 191838Z 35009KT 04/M03 A3032 RMK A01 T00351028  RH  064%=      5-min Rain = 0
KPD1 191839Z 36010KT 04/M03 A3032 RMK A01 T00351027  RH  064%=      5-min Rain = 0
KPD1 191840Z 35007KT 04/M03 A3032 RMK A01 T00351029  RH  063%=      5-min Rain = 0
KPD1 191841Z 35010KT 03/M03 A3031 RMK A01 T00341028  RH  064%=      5-min Rain = 0
KPD1 191842Z 35011KT 04/M03 A3031 RMK A01 T00351029  RH  063%=      5-min Rain = 0
KPD1 191843Z 34008KT 04/M03 A3031 RMK A01 T00351028  RH  063%=      5-min Rain = 0
KPD1 191844Z 36007KT 04/M03 A3031 RMK A01 T00361026  RH  064%=      5-min Rain = 0
KPD1 191845Z 36010KT 04/M02 A3031 RMK A01 T00401023  RH  064%=      5-min Rain = 0
KPD1 191846Z 34006KT 04/M03 A3031 RMK A01 T00411025  RH  062%=      5-min Rain = 0
KPD1 191847Z 35010G15KT 04/M03 A3031 RMK A01 T00411026  RH  062%=      5-min Rain = 0
KPD1 191848Z 01007KT 04/M03 A3031 RMK A01 T00411027  RH  061%=      5-min Rain = 0
KPD1 191849Z 34009KT 04/M03 A3031 RMK A01 T00421027  RH  061%=      5-min Rain = 0
KPD1 191850Z 35011KT 04/M03 A3031 RMK A01 T00411029  RH  060%=      5-min Rain = 0
KPD1 191851Z 35010KT 04/M03 A3031 RMK A01 T00411028  RH  061%=      5-min Rain = 0
KPD1 191852Z 00009KT 04/M03 A3031 RMK A01 T00421027  RH  061%=      5-min Rain = 0
KPD1 191853Z 35009KT 04/M03 A303 RMK A01 T00421027  RH  061%=      5-min Rain = 0
KPD1 191854Z 36011KT 04/M03 A3031 RMK A01 T00431027  RH  060%=      5-min Rain = 0
KPD1 191855Z 34009KT 04/M03 A303 RMK A01 T00421029  RH  060%=      5-min Rain = 0
KPD1 191856Z 33012KT 04/M03 A303 RMK A01 T00421028  RH  060%=      5-min Rain = 0
KPD1 191857Z 33014G19KT 04/M03 A303 RMK A01 T00421029  RH  060%=      5-min Rain = 0
KPD1 191858Z 33012KT 04/M03 A303 RMK A01 T00421029  RH  060%=      5-min Rain = 0
KPD1 191859Z 33011KT 04/M03 A303 RMK A01 T00421029  RH  060%=      5-min Rain = 0
KPD1 191900Z 35010KT 04/M03 A303 RMK A01 T00421028  RH  060%=      5-min Rain = 0
KPD1 191901Z 35011G18KT 04/M03 A303 RMK A01 T00431028  RH  060%=      5-min Rain = 0
KPD1 191902Z 34009G15KT 04/M03 A303 RMK A01 T00441028  RH  060%=      5-min Rain = 0
KPD1 191903Z 34012KT 04/M03 A303 RMK A01 T00441028  RH  059%=      5-min Rain = 0
KPD1 191904Z 33012KT 04/M03 A303 RMK A01 T00431030  RH  059%=      5-min Rain = 0
KPD1 191905Z 33011KT 04/M03 A303 RMK A01 T00431029  RH  059%=      5-min Rain = 0
KPD1 191906Z 33011KT 04/M03 A303 RMK A01 T00441027  RH  060%=      5-min Rain = 0
KPD1 191907Z 33013KT 05/M03 A303 RMK A01 T00471025  RH  060%=      5-min Rain = 0
KPD1 191908Z 34013KT 05/M03 A303 RMK A01 T00471028  RH  058%=      5-min Rain = 0
KPD1 191909Z 34012KT 05/M03 A303 RMK A01 T00461029  RH  058%=      5-min Rain = 0
KPD1 191910Z 33012G17KT 05/M03 A303 RMK A01 T00451029  RH  059%=      5-min Rain = 0
KPD1 191911Z 33015KT 05/M03 A303 RMK A01 T00451029  RH  059%=      5-min Rain = 0
KPD1 191912Z 34011KT 05/M03 A303 RMK A01 T00451028  RH  059%=      5-min Rain = 0
KPD1 191913Z 34011KT 05/M03 A303 RMK A01 T00461026  RH  059%=      5-min Rain = 0
KPD1 191914Z 33011KT 05/M03 A303 RMK A01 T00471027  RH  059%=      5-min Rain = 0
KPD1 191915Z 33013KT 05/M03 A303 RMK A01 T00471027  RH  059%=      5-min Rain = 0
KPD1 191916Z 34008KT 05/M03 A303 RMK A01 T00461030  RH  058%=      5-min Rain = 0
KPD1 191917Z 35012KT 05/M03 A303 RMK A01 T00451028  RH  059%=      5-min Rain = 0
KPD1 191918Z 35014KT 05/M03 A303 RMK A01 T00461028  RH  058%=      5-min Rain = 0
KPD1 191919Z 34012KT 05/M03 A303 RMK A01 T00471029  RH  058%=      5-min Rain = 0
KPD1 191920Z 35009KT 05/M03 A3029 RMK A01 T00461030  RH  058%=      5-min Rain = 0
KPD1 191921Z 36012KT 05/M03 A3029 RMK A01 T00461028  RH  059%=      5-min Rain = 0
KPD1 191922Z 35010KT 05/M03 A3029 RMK A01 T00461029  RH  058%=      5-min Rain = 0
KPD1 191923Z 34013KT 05/M03 A3029 RMK A01 T00481027  RH  058%=      5-min Rain = 0
KPD1 191924Z 32011G16KT 05/M03 A3029 RMK A01 T00481030  RH  057%=      5-min Rain = 0
KPD1 191925Z 32015KT 05/M03 A3029 RMK A01 T00471030  RH  058%=      5-min Rain = 0
KPD1 191926Z 33013KT 05/M03 A3029 RMK A01 T00471031  RH  057%=      5-min Rain = 0
KPD1 191927Z 32009G14KT 05/M03 A3029 RMK A01 T00471030  RH  057%=      5-min Rain = 0
KPD1 191928Z 33009KT 05/M03 A3029 RMK A01 T00501026  RH  058%=      5-min Rain = 0
KPD1 191929Z 35013KT 05/M03 A3029 RMK A01 T00521027  RH  057%=      5-min Rain = 0
KPD1 191930Z 35010KT 05/M03 A3029 RMK A01 T00511029  RH  056%=      5-min Rain = 0
KPD1 191931Z 34010KT 05/M03 A3029 RMK A01 T00521028  RH  056%=      5-min Rain = 0
KPD1 191932Z 34011KT 05/M03 A3029 RMK A01 T00521028  RH  056%=      5-min Rain = 0
KPD1 191933Z 34011KT 05/M03 A3029 RMK A01 T00521028  RH  056%=      5-min Rain = 0
KPD1 191934Z 33009KT 05/M03 A3029 RMK A01 T00531028  RH  056%=      5-min Rain = 0
KPD1 191935Z 35010KT 05/M03 A3029 RMK A01 T00541025  RH  057%=      5-min Rain = 0
KPD1 191936Z 35011KT 06/M03 A3029 RMK A01 T00561026  RH  055%=      5-min Rain = 0
KPD1 191937Z 34010KT 06/M03 A3029 RMK A01 T00551029  RH  055%=      5-min Rain = 0
KPD1 191938Z 33012KT 06/M03 A3029 RMK A01 T00551028  RH  055%=      5-min Rain = 0
KPD1 191939Z 32013G18KT 05/M03 A3029 RMK A01 T00541031  RH  055%=      5-min Rain = 0
KPD1 191940Z 32014KT 05/M03 A3029 RMK A01 T00511033  RH  055%=      5-min Rain = 0
KPD1 191941Z 32013KT 05/M03 A3029 RMK A01 T00501032  RH  055%=      5-min Rain = 0
KPD1 191942Z 34011KT 05/M03 A3029 RMK A01 T00521030  RH  056%=      5-min Rain = 0
KPD1 191943Z 35010KT 05/M03 A3029 RMK A01 T00541028  RH  055%=      5-min Rain = 0
KPD1 191944Z 34009KT 06/M03 A3029 RMK A01 T00551029  RH  055%=      5-min Rain = 0
KPD1 191945Z 33008KT 06/M03 A3029 RMK A01 T00561029  RH  054%=      5-min Rain = 0
KPD1 191946Z 33009KT 06/M03 A3028 RMK A01 T00581028  RH  054%=      5-min Rain = 0
KPD1 191947Z 33012KT 06/M03 A3029 RMK A01 T00591028  RH  054%=      5-min Rain = 0
KPD1 191948Z 33013KT 06/M03 A3028 RMK A01 T00581031  RH  053%=      5-min Rain = 0
KPD1 191949Z 34011KT 06/M03 A3028 RMK A01 T00561032  RH  053%=      5-min Rain = 0
KPD1 191950Z 34009KT 05/M03 A3028 RMK A01 T00541032  RH  054%=      5-min Rain = 0
KPD1 191951Z 33007KT 06/M03 A3028 RMK A01 T00561030  RH  054%=      5-min Rain = 0
KPD1 191952Z 34007KT 06/M03 A3028 RMK A01 T00591027  RH  054%=      5-min Rain = 0
KPD1 191953Z 33010KT 06/M03 A3028 RMK A01 T00611027  RH  053%=      5-min Rain = 0
KPD1 191954Z 34010KT 06/M03 A3028 RMK A01 T00611029  RH  052%=      5-min Rain = 0
KPD1 191955Z 33008KT 06/M03 A3028 RMK A01 T00611028  RH  053%=      5-min Rain = 0
KPD1 191956Z 33011KT 06/M03 A3028 RMK A01 T00631026  RH  053%=      5-min Rain = 0
KPD1 191957Z 33011KT 06/M03 A3028 RMK A01 T00611031  RH  052%=      5-min Rain = 0
KPD1 191958Z 32013KT 06/M03 A3028 RMK A01 T00591032  RH  052%=      5-min Rain = 0
KPD1 191959Z 31010KT 06/M03 A3028 RMK A01 T00571034  RH  052%=      5-min Rain = 0
KPD1 192000Z 32010KT 06/M03 A3028 RMK A01 T00571033  RH  052%=      5-min Rain = 0
KPD1 192001Z 34012KT 06/M03 A3028 RMK A01 T00591029  RH  053%=      5-min Rain = 0
KPD1 192002Z 34010KT 06/M03 A3028 RMK A01 T00611031  RH  052%=      5-min Rain = 0
KPD1 192003Z 34011KT 06/M03 A3028 RMK A01 T00601031  RH  052%=      5-min Rain = 0
KPD1 192004Z 34009KT 06/M03 A3028 RMK A01 T00601032  RH  052%=      5-min Rain = 0
KPD1 192005Z 35007KT 06/M03 A3028 RMK A01 T00591031  RH  052%=      5-min Rain = 0
KPD1 192006Z 34008G14KT 06/M03 A3028 RMK A01 T00611027  RH  053%=      5-min Rain = 0
KPD1 192007Z 33010KT 06/M03 A3028 RMK A01 T00621030  RH  052%=      5-min Rain = 0
KPD1 192008Z 34011KT 06/M03 A3028 RMK A01 T00601032  RH  052%=      5-min Rain = 0
KPD1 192009Z 34011KT 06/M03 A3027 RMK A01 T00621031  RH  052%=      5-min Rain = 0
KPD1 192010Z 35011KT 06/M03 A3027 RMK A01 T00611034  RH  051%=      5-min Rain = 0
KPD1 192011Z 36007KT 06/M03 A3027 RMK A01 T00601033  RH  051%=      5-min Rain = 0
KPD1 192012Z 33007KT 06/M03 A3027 RMK A01 T00611031  RH  052%=      5-min Rain = 0
KPD1 192013Z 33007KT 06/M03 A3027 RMK A01 T00631029  RH  052%=      5-min Rain = 0
KPD1 192014Z 33007KT 06/M03 A3027 RMK A01 T00641028  RH  052%=      5-min Rain = 0
KPD1 192015Z 34009KT 07/M03 A3027 RMK A01 T00651028  RH  051%=      5-min Rain = 0
KPD1 192016Z 34009KT 07/M03 A3027 RMK A01 T00651028  RH  051%=      5-min Rain = 0
KPD1 192017Z 34012KT 07/M03 A3027 RMK A01 T00661029  RH  051%=      5-min Rain = 0
KPD1 192018Z 33008KT 07/M03 A3027 RMK A01 T00661031  RH  050%=      5-min Rain = 0
KPD1 192019Z 33009KT 07/M03 A3027 RMK A01 T00661032  RH  049%=      5-min Rain = 0
KPD1 192020Z 34009KT 07/M03 A3027 RMK A01 T00651033  RH  050%=      5-min Rain = 0
KPD1 192021Z 35011KT 07/M03 A3027 RMK A01 T00661030  RH  050%=      5-min Rain = 0
KPD1 192022Z 33013KT 07/M03 A3027 RMK A01 T00671030  RH  050%=      5-min Rain = 0
KPD1 192023Z 34009KT 07/M03 A3027 RMK A01 T00651032  RH  050%=      5-min Rain = 0
KPD1 192024Z 34010KT 07/M03 A3027 RMK A01 T00651031  RH  050%=      5-min Rain = 0
KPD1 192025Z 33009G14KT 07/M03 A3027 RMK A01 T00661030  RH  050%=      5-min Rain = 0
KPD1 192026Z 33010KT 07/M03 A3027 RMK A01 T00671029  RH  050%=      5-min Rain = 0
KPD1 192027Z 33007KT 07/M03 A3027 RMK A01 T00691028  RH  050%=      5-min Rain = 0
KPD1 192028Z 34010KT 07/M03 A3027 RMK A01 T00701028  RH  050%=      5-min Rain = 0
KPD1 192029Z 33009KT 07/M03 A3027 RMK A01 T00701030  RH  049%=      5-min Rain = 0
KPD1 192030Z 33009KT 07/M03 A3027 RMK A01 T00701029  RH  049%=      5-min Rain = 0
KPD1 192031Z 32007KT 07/M03 A3027 RMK A01 T00721028  RH  049%=      5-min Rain = 0
KPD1 192032Z 32008KT 07/M03 A3027 RMK A01 T00741027  RH  049%=      5-min Rain = 0
KPD1 192033Z 35013G18KT 08/M03 A3027 RMK A01 T00751030  RH  047%=      5-min Rain = 0
KPD1 192034Z 35010KT 07/M04 A3027 RMK A01 T00721035  RH  047%=      5-min Rain = 0
KPD1 192035Z 34009KT 07/M03 A3027 RMK A01 T00711033  RH  047%=      5-min Rain = 0
KPD1 192036Z 33010KT 07/M03 A3027 RMK A01 T00701034  RH  047%=      5-min Rain = 0
KPD1 192037Z 35008G13KT 07/M03 A3027 RMK A01 T00681033  RH  048%=      5-min Rain = 0
KPD1 192038Z 35011KT 07/M03 A3027 RMK A01 T00701031  RH  049%=      5-min Rain = 0
KPD1 192039Z 34011KT 07/M03 A3027 RMK A01 T00691033  RH  048%=      5-min Rain = 0
KPD1 192040Z 33010KT 07/M03 A3027 RMK A01 T00681031  RH  049%=      5-min Rain = 0
KPD1 192041Z 32011KT 07/M03 A3027 RMK A01 T00691031  RH  049%=      5-min Rain = 0
KPD1 192042Z 33011KT 07/M03 A3027 RMK A01 T00701032  RH  048%=      5-min Rain = 0
KPD1 192043Z 33014KT 07/M04 A3027 RMK A01 T00691035  RH  048%=      5-min Rain = 0
KPD1 192044Z 33012KT 07/M04 A3027 RMK A01 T00681036  RH  047%=      5-min Rain = 0
KPD1 192045Z 34011KT 07/M04 A3027 RMK A01 T00681035  RH  048%=      5-min Rain = 0
KPD1 192046Z 34009KT 07/M04 A3027 RMK A01 T00681035  RH  048%=      5-min Rain = 0
KPD1 192047Z 34013KT 07/M04 A3027 RMK A01 T00681035  RH  048%=      5-min Rain = 0
KPD1 192048Z 33012KT 07/M03 A3027 RMK A01 T00681034  RH  048%=      5-min Rain = 0
KPD1 192049Z 33011KT 07/M03 A3027 RMK A01 T00681034  RH  048%=      5-min Rain = 0
KPD1 192050Z 33011KT 07/M03 A3027 RMK A01 T00691033  RH  048%=      5-min Rain = 0
KPD1 192051Z 32013KT 07/M03 A3027 RMK A01 T00711032  RH  048%=      5-min Rain = 0
KPD1 192052Z 32015KT 07/M03 A3027 RMK A01 T00711034  RH  047%=      5-min Rain = 0
KPD1 192053Z 31012KT 07/M04 A3027 RMK A01 T00711036  RH  047%=      5-min Rain = 0
KPD1 192054Z 33010KT 07/M04 A3027 RMK A01 T00701035  RH  047%=      5-min Rain = 0
KPD1 192055Z 34011KT 07/M03 A3027 RMK A01 T00721034  RH  047%=      5-min Rain = 0
KPD1 192056Z 34012KT 07/M04 A3027 RMK A01 T00721036  RH  046%=      5-min Rain = 0
KPD1 192057Z 34011KT 07/M04 A3027 RMK A01 T00721037  RH  046%=      5-min Rain = 0
KPD1 192058Z 34011KT 07/M04 A3027 RMK A01 T00731037  RH  046%=      5-min Rain = 0
KPD1 192059Z 33011KT 07/M04 A3027 RMK A01 T00721038  RH  045%=      5-min Rain = 0
KPD1 192100Z 34009G15KT 07/M04 A3027 RMK A01 T00731037  RH  045%=      5-min Rain = 0
KPD1 192101Z 35009KT 07/M04 A3026 RMK A01 T00741036  RH  046%=      5-min Rain = 0
KPD1 192102Z 35008KT 07/M03 A3026 RMK A01 T00741034  RH  046%=      5-min Rain = 0
KPD1 192103Z 34010KT 08/M03 A3026 RMK A01 T00751034  RH  046%=      5-min Rain = 0
KPD1 192104Z 33009KT 08/M04 A3026 RMK A01 T00751036  RH  045%=      5-min Rain = 0
KPD1 192105Z 33009KT 07/M04 A3026 RMK A01 T00741035  RH  046%=      5-min Rain = 0
KPD1 192106Z 34008KT 08/M03 A3026 RMK A01 T00751033  RH  046%=      5-min Rain = 0
KPD1 192107Z 00007KT 08/M03 A3026 RMK A01 T00761034  RH  046%=      5-min Rain = 0
KPD1 192108Z 33005KT 08/M03 A3026 RMK A01 T00761033  RH  046%=      5-min Rain = 0
KPD1 192109Z 33007KT 08/M03 A3026 RMK A01 T00781032  RH  046%=      5-min Rain = 0
KPD1 192110Z 32006KT 08/M03 A3026 RMK A01 T00781032  RH  046%=      5-min Rain = 0
KPD1 192111Z 33009KT 08/M03 A3026 RMK A01 T00781032  RH  046%=      5-min Rain = 0
KPD1 192112Z 33009KT 08/M03 A3026 RMK A01 T00781032  RH  046%=      5-min Rain = 0
KPD1 192113Z 00008KT 08/M03 A3026 RMK A01 T00781033  RH  045%=      5-min Rain = 0
KPD1 192114Z 36008KT 08/M03 A3026 RMK A01 T00791033  RH  045%=      5-min Rain = 0
KPD1 192115Z 35011KT 08/M04 A3026 RMK A01 T00791035  RH  044%=      5-min Rain = 0
KPD1 192116Z 35005KT 08/M04 A3026 RMK A01 T00781036  RH  044%=      5-min Rain = 0
KPD1 192117Z 34007KT 08/M03 A3026 RMK A01 T00801033  RH  045%=      5-min Rain = 0
KPD1 192118Z 33008KT 08/M04 A3026 RMK A01 T00801036  RH  044%=      5-min Rain = 0
KPD1 192119Z 36007G12KT 08/M04 A3026 RMK A01 T00791037  RH  044%=      5-min Rain = 0
KPD1 192120Z 34009KT 08/M04 A3026 RMK A01 T00791036  RH  044%=      5-min Rain = 0
KPD1 192121Z 35009KT 08/M04 A3026 RMK A01 T00781037  RH  044%=      5-min Rain = 0
KPD1 192122Z 00007KT 08/M04 A3026 RMK A01 T00781037  RH  044%=      5-min Rain = 0
KPD1 192123Z 35010KT 08/M04 A3026 RMK A01 T00771037  RH  044%=      5-min Rain = 0
KPD1 192124Z 35008KT 08/M04 A3026 RMK A01 T00761038  RH  044%=      5-min Rain = 0
KPD1 192125Z 34007KT 08/M04 A3026 RMK A01 T00761037  RH  045%=      5-min Rain = 0
KPD1 192126Z 35006KT 08/M04 A3026 RMK A01 T00771035  RH  045%=      5-min Rain = 0
KPD1 192127Z 34007KT 08/M03 A3026 RMK A01 T00811032  RH  045%=      5-min Rain = 0
KPD1 192128Z 36009KT 08/M03 A3026 RMK A01 T00821033  RH  044%=      5-min Rain = 0
KPD1 192129Z 34008KT 08/M04 A3026 RMK A01 T00821035  RH  044%=      5-min Rain = 0
KPD1 192130Z 32011KT 08/M04 A3026 RMK A01 T00821036  RH  043%=      5-min Rain = 0
KPD1 192131Z 33011G16KT 08/M04 A3026 RMK A01 T00791040  RH  043%=      5-min Rain = 0
KPD1 192132Z 32012KT 08/M04 A3026 RMK A01 T00771043  RH  042%=      5-min Rain = 0
KPD1 192133Z 34011KT 08/M04 A3026 RMK A01 T00761043  RH  043%=      5-min Rain = 0
KPD1 192134Z 34010KT 08/M04 A3026 RMK A01 T00751043  RH  043%=      5-min Rain = 0
KPD1 192135Z 33010KT 08/M04 A3026 RMK A01 T00771040  RH  043%=      5-min Rain = 0
KPD1 192136Z 33007KT 08/M04 A3027 RMK A01 T00771040  RH  043%=      5-min Rain = 0
KPD1 192137Z 33007KT 08/M04 A3026 RMK A01 T00771040  RH  043%=      5-min Rain = 0
KPD1 192138Z 33007KT 08/M04 A3027 RMK A01 T00781039  RH  043%=      5-min Rain = 0
KPD1 192139Z 35009KT 08/M04 A3027 RMK A01 T00781040  RH  043%=      5-min Rain = 0
KPD1 192140Z 36007KT 08/M04 A3027 RMK A01 T00791039  RH  043%=      5-min Rain = 0
KPD1 192141Z 35010KT 08/M04 A3027 RMK A01 T00791041  RH  042%=      5-min Rain = 0
KPD1 192142Z 35008KT 08/M04 A3027 RMK A01 T00771043  RH  042%=      5-min Rain = 0
KPD1 192143Z 33006KT 08/M04 A3027 RMK A01 T00771040  RH  043%=      5-min Rain = 0
KPD1 192144Z 34007KT 08/M04 A3027 RMK A01 T00781038  RH  044%=      5-min Rain = 0
KPD1 192145Z 35006KT 08/M04 A3027 RMK A01 T00791038  RH  043%=      5-min Rain = 0
KPD1 192146Z 34008KT 08/M04 A3027 RMK A01 T00811037  RH  043%=      5-min Rain = 0
KPD1 192147Z 36006KT 08/M04 A3027 RMK A01 T00821036  RH  043%=      5-min Rain = 0
KPD1 192148Z 36009KT 08/M03 A3027 RMK A01 T00821034  RH  044%=      5-min Rain = 0
KPD1 192149Z 35008KT 08/M04 A3027 RMK A01 T00801038  RH  043%=      5-min Rain = 0
KPD1 192150Z 34009KT 08/M04 A3027 RMK A01 T00781038  RH  044%=      5-min Rain = 0
KPD1 192151Z 35005KT 08/M04 A3027 RMK A01 T00781037  RH  044%=      5-min Rain = 0
KPD1 192152Z 00008KT 08/M04 A3027 RMK A01 T00791036  RH  044%=      5-min Rain = 0
KPD1 192153Z 01008KT 08/M04 A3027 RMK A01 T00791037  RH  044%=      5-min Rain = 0
KPD1 192154Z 36006KT 08/M04 A3027 RMK A01 T00791036  RH  044%=      5-min Rain = 0
KPD1 192155Z 34004KT 08/M03 A3027 RMK A01 T00811034  RH  044%=      5-min Rain = 0
KPD1 192156Z 36004KT 08/M03 A3027 RMK A01 T00831034  RH  043%=      5-min Rain = 0
KPD1 192157Z 33004KT 09/M03 A3027 RMK A01 T00851033  RH  043%=      5-min Rain = 0
KPD1 192158Z 34006KT 09/M03 A3027 RMK A01 T00861034  RH  043%=      5-min Rain = 0
KPD1 192159Z 35007KT 08/M04 A3027 RMK A01 T00841037  RH  042%=      5-min Rain = 0
KPD1 192200Z 34008KT 08/M04 A3027 RMK A01 T00821040  RH  042%=      5-min Rain = 0
KPD1 192201Z 35007KT 08/M04 A3027 RMK A01 T00811041  RH  042%=      5-min Rain = 0
KPD1 192202Z 35009KT 08/M04 A3027 RMK A01 T00801041  RH  042%=      5-min Rain = 0
KPD1 192203Z 34007KT 08/M04 A3027 RMK A01 T00801041  RH  042%=      5-min Rain = 0
KPD1 192204Z 34008KT 08/M04 A3027 RMK A01 T00791040  RH  043%=      5-min Rain = 0
KPD1 192205Z 36011KT 08/M04 A3027 RMK A01 T00801040  RH  042%=      5-min Rain = 0
KPD1 192206Z 35010KT 08/M04 A3027 RMK A01 T00801041  RH  042%=      5-min Rain = 0
KPD1 192207Z 34009KT 08/M04 A3027 RMK A01 T00781043  RH  042%=      5-min Rain = 0
KPD1 192208Z 33008KT 08/M04 A3027 RMK A01 T00781042  RH  042%=      5-min Rain = 0
KPD1 192209Z 34007KT 08/M04 A3027 RMK A01 T00781042  RH  043%=      5-min Rain = 0
KPD1 192210Z 34007G12KT 08/M04 A3027 RMK A01 T00781041  RH  043%=      5-min Rain = 0
KPD1 192211Z 34007KT 08/M04 A3027 RMK A01 T00791041  RH  042%=      5-min Rain = 0
KPD1 192212Z 34007KT 08/M04 A3027 RMK A01 T00791042  RH  042%=      5-min Rain = 0
KPD1 192213Z 34006KT 08/M04 A3027 RMK A01 T00781042  RH  042%=      5-min Rain = 0
KPD1 192214Z 34007KT 08/M04 A3027 RMK A01 T00781041  RH  043%=      5-min Rain = 0
KPD1 192215Z 34008KT 08/M04 A3027 RMK A01 T00791040  RH  043%=      5-min Rain = 0
KPD1 192216Z 33008KT 08/M04 A3027 RMK A01 T00791041  RH  042%=      5-min Rain = 0
KPD1 192217Z 34007KT 08/M04 A3027 RMK A01 T00791042  RH  042%=      5-min Rain = 0
KPD1 192218Z 34009KT 08/M04 A3027 RMK A01 T00781041  RH  043%=      5-min Rain = 0
KPD1 192219Z 35008KT 08/M04 A3027 RMK A01 T00791040  RH  043%=      5-min Rain = 0
KPD1 192220Z 33009KT 08/M04 A3027 RMK A01 T00791040  RH  043%=      5-min Rain = 0
KPD1 192221Z 33007KT 08/M04 A3027 RMK A01 T00791041  RH  042%=      5-min Rain = 0
KPD1 192222Z 35008KT 08/M04 A3027 RMK A01 T00781041  RH  043%=      5-min Rain = 0
KPD1 192223Z 35008KT 08/M04 A3027 RMK A01 T00791040  RH  043%=      5-min Rain = 0
KPD1 192224Z 00006KT 08/M04 A3027 RMK A01 T00791041  RH  042%=      5-min Rain = 0
KPD1 192225Z 34004KT 08/M04 A3027 RMK A01 T00791041  RH  042%=      5-min Rain = 0
KPD1 192226Z 32006KT 08/M04 A3027 RMK A01 T00791041  RH  042%=      5-min Rain = 0
KPD1 192227Z 32006KT 08/M04 A3027 RMK A01 T00791041  RH  042%=      5-min Rain = 0
KPD1 192228Z 31007KT 08/M04 A3027 RMK A01 T00801041  RH  042%=      5-min Rain = 0
KPD1 192229Z 32006KT 08/M04 A3027 RMK A01 T00791041  RH  042%=      5-min Rain = 0
KPD1 192230Z 32004KT 08/M04 A3027 RMK A01 T00791041  RH  042%=      5-min Rain = 0
KPD1 192231Z 33006KT 08/M04 A3027 RMK A01 T00811039  RH  042%=      5-min Rain = 0
KPD1 192232Z 36005KT 08/M04 A3027 RMK A01 T00801040  RH  042%=      5-min Rain = 0
KPD1 192233Z 34007KT 08/M04 A3027 RMK A01 T00801040  RH  042%=      5-min Rain = 0
KPD1 192234Z 35004KT 08/M04 A3027 RMK A01 T00801040  RH  042%=      5-min Rain = 0
KPD1 192235Z 34006KT 08/M04 A3027 RMK A01 T00801040  RH  043%=      5-min Rain = 0
KPD1 192236Z 34006KT 08/M04 A3027 RMK A01 T00801040  RH  042%=      5-min Rain = 0
KPD1 192237Z 33006KT 08/M04 A3027 RMK A01 T00801041  RH  042%=      5-min Rain = 0
KPD1 192238Z 34009KT 08/M04 A3027 RMK A01 T00801041  RH  042%=      5-min Rain = 0
KPD1 192239Z 34009KT 08/M04 A3027 RMK A01 T00791043  RH  042%=      5-min Rain = 0
KPD1 192240Z 33005KT 08/M04 A3027 RMK A01 T00781044  RH  042%=      5-min Rain = 0
KPD1 192241Z 34005KT 08/M04 A3027 RMK A01 T00791042  RH  042%=      5-min Rain = 0
KPD1 192242Z 34006KT 08/M04 A3027 RMK A01 T00801041  RH  042%=      5-min Rain = 0
KPD1 192243Z 36006KT 08/M04 A3027 RMK A01 T00801042  RH  042%=      5-min Rain = 0
KPD1 192244Z 35003KT 08/M04 A3027 RMK A01 T00801043  RH  042%=      5-min Rain = 0
KPD1 192245Z 34005KT 08/M04 A3027 RMK A01 T00801041  RH  042%=      5-min Rain = 0
KPD1 192246Z 35004KT 08/M04 A3027 RMK A01 T00811042  RH  041%=      5-min Rain = 0
KPD1 192247Z 36007KT 08/M04 A3027 RMK A01 T00811043  RH  041%=      5-min Rain = 0
KPD1 192248Z 35007KT 08/M04 A3027 RMK A01 T00801044  RH  041%=      5-min Rain = 0
KPD1 192249Z 35007KT 08/M05 A3027 RMK A01 T00791045  RH  041%=      5-min Rain = 0
KPD1 192250Z 35009KT 08/M04 A3027 RMK A01 T00781044  RH  042%=      5-min Rain = 0
KPD1 192251Z 36008KT 08/M05 A3027 RMK A01 T00781045  RH  041%=      5-min Rain = 0
KPD1 192252Z 35007KT 08/M05 A3027 RMK A01 T00771045  RH  041%=      5-min Rain = 0
KPD1 192253Z 35006KT 08/M04 A3027 RMK A01 T00771044  RH  042%=      5-min Rain = 0
KPD1 192254Z 35005KT 08/M04 A3027 RMK A01 T00771044  RH  042%=      5-min Rain = 0
KPD1 192255Z 35007KT 08/M04 A3027 RMK A01 T00771043  RH  042%=      5-min Rain = 0
KPD1 192256Z 34006KT 08/M04 A3027 RMK A01 T00771044  RH  042%=      5-min Rain = 0
KPD1 192257Z 33007KT 08/M04 A3027 RMK A01 T00771044  RH  042%=      5-min Rain = 0
KPD1 192258Z 33007KT 08/M04 A3027 RMK A01 T00771044  RH  042%=      5-min Rain = 0
KPD1 192259Z 33006KT 08/M05 A3027 RMK A01 T00751046  RH  042%=      5-min Rain = 0
KPD1 192300Z 33005KT 08/M05 A3027 RMK A01 T00751046  RH  042%=      5-min Rain = 0
KPD1 192301Z 34006KT 08/M04 A3027 RMK A01 T00751044  RH  042%=      5-min Rain = 0
KPD1 192302Z 34006KT 08/M04 A3027 RMK A01 T00751044  RH  042%=      5-min Rain = 0
KPD1 192303Z 34007KT 08/M04 A3027 RMK A01 T00751044  RH  042%=      5-min Rain = 0
KPD1 192304Z 35006KT 08/M04 A3027 RMK A01 T00751044  RH  042%=      5-min Rain = 0
KPD1 192305Z 35005KT 08/M05 A3027 RMK A01 T00751045  RH  042%=      5-min Rain = 0
KPD1 192306Z 00005KT 08/M05 A3027 RMK A01 T00751045  RH  042%=      5-min Rain = 0
KPD1 192307Z 35003KT 08/M05 A3027 RMK A01 T00761045  RH  042%=      5-min Rain = 0
KPD1 192308Z 35004KT 08/M04 A3027 RMK A01 T00761044  RH  042%=      5-min Rain = 0
KPD1 192309Z 00005KT 08/M04 A3027 RMK A01 T00761044  RH  042%=      5-min Rain = 0
KPD1 192310Z 35006KT 08/M04 A3027 RMK A01 T00751043  RH  043%=      5-min Rain = 0
KPD1 192311Z 35006KT 08/M04 A3027 RMK A01 T00751044  RH  043%=      5-min Rain = 0
KPD1 192312Z 35006KT 08/M05 A3027 RMK A01 T00751045  RH  042%=      5-min Rain = 0
KPD1 192313Z 35005KT 07/M05 A3027 RMK A01 T00741045  RH  042%=      5-min Rain = 0
KPD1 192314Z 35005KT 07/M05 A3028 RMK A01 T00731045  RH  043%=      5-min Rain = 0
KPD1 192315Z 35005KT 07/M05 A3028 RMK A01 T00731045  RH  043%=      5-min Rain = 0
KPD1 192316Z 35006KT 07/M05 A3028 RMK A01 T00731045  RH  043%=      5-min Rain = 0
KPD1 192317Z 35005KT 07/M05 A3028 RMK A01 T00731045  RH  043%=      5-min Rain = 0
KPD1 192318Z 35005KT 07/M05 A3028 RMK A01 T00721045  RH  043%=      5-min Rain = 0
KPD1 192319Z 35005KT 07/M05 A3028 RMK A01 T00721045  RH  043%=      5-min Rain = 0
KPD1 192320Z 35006KT 07/M05 A3028 RMK A01 T00721046  RH  043%=      5-min Rain = 0
KPD1 192321Z 35005KT 07/M05 A3028 RMK A01 T00711046  RH  043%=      5-min Rain = 0
KPD1 192322Z 35005KT 07/M05 A3028 RMK A01 T00711046  RH  043%=      5-min Rain = 0
KPD1 192323Z 34004KT 07/M05 A3028 RMK A01 T00701046  RH  043%=      5-min Rain = 0
KPD1 192324Z 34004KT 07/M05 A3028 RMK A01 T00701045  RH  044%=      5-min Rain = 0
KPD1 192325Z 34005KT 07/M05 A3028 RMK A01 T00701045  RH  044%=      5-min Rain = 0
KPD1 192326Z 35005KT 07/M05 A3028 RMK A01 T00701045  RH  044%=      5-min Rain = 0
KPD1 192327Z 35005KT 07/M05 A3028 RMK A01 T00691045  RH  044%=      5-min Rain = 0
KPD1 192328Z 35005KT 07/M05 A3028 RMK A01 T00701046  RH  044%=      5-min Rain = 0
KPD1 192329Z 36005KT 07/M05 A3028 RMK A01 T00701046  RH  043%=      5-min Rain = 0
KPD1 192330Z 36003KT 07/M05 A3028 RMK A01 T00691047  RH  043%=      5-min Rain = 0
KPD1 192331Z 35003KT 07/M05 A3028 RMK A01 T00691046  RH  044%=      5-min Rain = 0
KPD1 192332Z 35003KT 07/M05 A3028 RMK A01 T00691047  RH  044%=      5-min Rain = 0
KPD1 192333Z 34003KT 07/M05 A3028 RMK A01 T00691047  RH  044%=      5-min Rain = 0
KPD1 192334Z 35003KT 07/M05 A3028 RMK A01 T00681047  RH  043%=      5-min Rain = 0
KPD1 192335Z 35003KT 07/M05 A3028 RMK A01 T00681047  RH  044%=      5-min Rain = 0
KPD1 192336Z 36003KT 07/M05 A3028 RMK A01 T00681047  RH  044%=      5-min Rain = 0
KPD1 192337Z 01003KT 07/M05 A3028 RMK A01 T00671047  RH  044%=      5-min Rain = 0
KPD1 192338Z 00004KT 07/M05 A3028 RMK A01 T00671047  RH  044%=      5-min Rain = 0
KPD1 192339Z 01002KT 07/M05 A3028 RMK A01 T00661047  RH  044%=      5-min Rain = 0
KPD1 192340Z 01003KT 07/M05 A3028 RMK A01 T00661046  RH  045%=      5-min Rain = 0
KPD1 192341Z 01002KT 07/M05 A3028 RMK A01 T00651046  RH  045%=      5-min Rain = 0
KPD1 192342Z 01003KT 07/M05 A3028 RMK A01 T00661046  RH  045%=      5-min Rain = 0
KPD1 192343Z 01004KT 07/M05 A3028 RMK A01 T00651046  RH  045%=      5-min Rain = 0
KPD1 192344Z 01003KT 06/M05 A3028 RMK A01 T00641047  RH  045%=      5-min Rain = 0
KPD1 192345Z 01004KT 06/M05 A3028 RMK A01 T00641046  RH  045%=      5-min Rain = 0
KPD1 192346Z 00004KT 06/M05 A3028 RMK A01 T00631047  RH  045%=      5-min Rain = 0
KPD1 192347Z 01004KT 06/M05 A3028 RMK A01 T00631047  RH  045%=      5-min Rain = 0
KPD1 192348Z 01004KT 06/M05 A3028 RMK A01 T00621047  RH  046%=      5-min Rain = 0
KPD1 192349Z 00004KT 06/M05 A3028 RMK A01 T00621047  RH  046%=      5-min Rain = 0
KPD1 192350Z 01003KT 06/M05 A3028 RMK A01 T00611047  RH  046%=      5-min Rain = 0
KPD1 192351Z 36003KT 06/M05 A3028 RMK A01 T00601047  RH  046%=      5-min Rain = 0
KPD1 192352Z 36003KT 06/M05 A3028 RMK A01 T00601047  RH  046%=      5-min Rain = 0
KPD1 192353Z 00003KT 06/M05 A3028 RMK A01 T00591048  RH  046%=      5-min Rain = 0
KPD1 192354Z 35003KT 06/M05 A3028 RMK A01 T00581047  RH  047%=      5-min Rain = 0
KPD1 192355Z 35003KT 06/M05 A3028 RMK A01 T00571048  RH  047%=      5-min Rain = 0
KPD1 192356Z 35003KT 06/M05 A3028 RMK A01 T00561048  RH  047%=      5-min Rain = 0
KPD1 192357Z 35002KT 06/M05 A3028 RMK A01 T00551048  RH  047%=      5-min Rain = 0
KPD1 192358Z 35003KT 06/M05 A3028 RMK A01 T00551047  RH  048%=      5-min Rain = 0
KPD1 192359Z 35002KT 05/M05 A3028 RMK A01 T00531047  RH  048%=      5-min Rain = 0
KPD1 200000Z 35003KT 05/M05 A3028 RMK A01 T00521048  RH  048%=      5-min Rain = 0
KPD1 200001Z 35003KT 05/M05 A3028 RMK A01 T00511048  RH  049%=      5-min Rain = 0
KPD1 200002Z 35003KT 05/M05 A3028 RMK A01 T00501048  RH  049%=      5-min Rain = 0
KPD1 200003Z 35003KT 05/M05 A3028 RMK A01 T00491048  RH  049%=      5-min Rain = 0
KPD1 200004Z 35003KT 05/M05 A3028 RMK A01 T00481048  RH  050%=      5-min Rain = 0
KPD1 200005Z 35003KT 05/M05 A3028 RMK A01 T00471048  RH  050%=      5-min Rain = 0
KPD1 200006Z 35002KT 05/M05 A3028 RMK A01 T00471049  RH  050%=      5-min Rain = 0
KPD1 200007Z 35003KT 05/M05 A3028 RMK A01 T00461049  RH  050%=      5-min Rain = 0
KPD1 200008Z 00002KT 05/M05 A3028 RMK A01 T00451049  RH  050%=      5-min Rain = 0
KPD1 200009Z 00002KT 05/M05 A3028 RMK A01 T00451049  RH  050%=      5-min Rain = 0
KPD1 200010Z 36002KT 04/M05 A3028 RMK A01 T00441049  RH  051%=      5-min Rain = 0
KPD1 200011Z 36002KT 04/M05 A3028 RMK A01 T00441049  RH  051%=      5-min Rain = 0
KPD1 200012Z 00002KT 04/M05 A3028 RMK A01 T00441049  RH  051%=      5-min Rain = 0
KPD1 200013Z 01002KT 04/M05 A3028 RMK A01 T00431049  RH  051%=      5-min Rain = 0
KPD1 200014Z 01001KT 04/M05 A3028 RMK A01 T00421049  RH  051%=      5-min Rain = 0
KPD1 200015Z 02001KT 04/M05 A3028 RMK A01 T00411049  RH  052%=      5-min Rain = 0
KPD1 200016Z 02001KT 04/M05 A3028 RMK A01 T00401049  RH  052%=      5-min Rain = 0
KPD1 200017Z 03002KT 04/M05 A3027 RMK A01 T00391049  RH  053%=      5-min Rain = 0
KPD1 200018Z 03002KT 04/M05 A3027 RMK A01 T00381049  RH  053%=      5-min Rain = 0
KPD1 200019Z 02002KT 04/M05 A3027 RMK A01 T00391049  RH  053%=      5-min Rain = 0
KPD1 200020Z 02003KT 04/M05 A3027 RMK A01 T00401048  RH  053%=      5-min Rain = 0
KPD1 200021Z 01003KT 04/M05 A3028 RMK A01 T00411048  RH  052%=      5-min Rain = 0
KPD1 200022Z 01002KT 04/M05 A3028 RMK A01 T00411049  RH  052%=      5-min Rain = 0
KPD1 200023Z 00003KT 04/M05 A3028 RMK A01 T00411049  RH  052%=      5-min Rain = 0
KPD1 200024Z 36002KT 04/M05 A3028 RMK A01 T00401049  RH  052%=      5-min Rain = 0
KPD1 200025Z 35002KT 04/M05 A3028 RMK A01 T00391049  RH  053%=      5-min Rain = 0
KPD1 200026Z 36002KT 04/M05 A3028 RMK A01 T00381049  RH  053%=      5-min Rain = 0
KPD1 200027Z 00002KT 04/M05 A3028 RMK A01 T00381049  RH  053%=      5-min Rain = 0
KPD1 200028Z 36002KT 04/M05 A3028 RMK A01 T00371049  RH  053%=      5-min Rain = 0
KPD1 200029Z 00002KT 04/M05 A3028 RMK A01 T00371049  RH  053%=      5-min Rain = 0
KPD1 200030Z 00002KT 04/M05 A3028 RMK A01 T00371048  RH  054%=      5-min Rain = 0
KPD1 200031Z 36002KT 04/M05 A3028 RMK A01 T00371048  RH  054%=      5-min Rain = 0
KPD1 200032Z 36002KT 04/M05 A3028 RMK A01 T00371047  RH  054%=      5-min Rain = 0
KPD1 200033Z 36002KT 04/M05 A3028 RMK A01 T00371048  RH  054%=      5-min Rain = 0
KPD1 200034Z 01002KT 04/M05 A3028 RMK A01 T00371048  RH  054%=      5-min Rain = 0
KPD1 200035Z 01002KT 04/M05 A3028 RMK A01 T00371048  RH  054%=      5-min Rain = 0
KPD1 200036Z 01002KT 04/M05 A3028 RMK A01 T00371048  RH  054%=      5-min Rain = 0
KPD1 200037Z 01002KT 04/M05 A3028 RMK A01 T00371048  RH  054%=      5-min Rain = 0
KPD1 200038Z 36001KT 04/M05 A3028 RMK A01 T00371048  RH  054%=      5-min Rain = 0
KPD1 200039Z 00001KT 04/M05 A3028 RMK A01 T00371048  RH  054%=      5-min Rain = 0
KPD1 200040Z 36001KT 04/M05 A3028 RMK A01 T00371048  RH  054%=      5-min Rain = 0
KPD1 200041Z 36001KT 04/M05 A3028 RMK A01 T00371048  RH  054%=      5-min Rain = 0
KPD1 200042Z 35000KT 04/M05 A3028 RMK A01 T00371048  RH  054%=      5-min Rain = 0
KPD1 200043Z 36001KT 04/M05 A3028 RMK A01 T00361049  RH  054%=      5-min Rain = 0
KPD1 200044Z 02001KT 04/M05 A3028 RMK A01 T00361049  RH  054%=      5-min Rain = 0
KPD1 200045Z 01001KT 04/M05 A3028 RMK A01 T00361049  RH  054%=      5-min Rain = 0
KPD1 200046Z 01002KT 04/M05 A3028 RMK A01 T00361049  RH  054%=      5-min Rain = 0
KPD1 200047Z 01002KT 04/M05 A3028 RMK A01 T00381047  RH  054%=      5-min Rain = 0
KPD1 200048Z 01002KT 04/M05 A3027 RMK A01 T00381048  RH  053%=      5-min Rain = 0
KPD1 200049Z 01003KT 04/M05 A3027 RMK A01 T00381048  RH  053%=      5-min Rain = 0
KPD1 200050Z 01004KT 04/M05 A3027 RMK A01 T00381048  RH  053%=      5-min Rain = 0
KPD1 200051Z 02004KT 04/M05 A3027 RMK A01 T00381048  RH  053%=      5-min Rain = 0
KPD1 200052Z 02005KT 04/M05 A3027 RMK A01 T00371049  RH  053%=      5-min Rain = 0
KPD1 200053Z 02005KT 04/M05 A3027 RMK A01 T00371049  RH  054%=      5-min Rain = 0
KPD1 200054Z 01005KT 04/M05 A3027 RMK A01 T00361049  RH  054%=      5-min Rain = 0
KPD1 200055Z 02005KT 04/M05 A3027 RMK A01 T00351048  RH  054%=      5-min Rain = 0
KPD1 200056Z 02006KT 04/M05 A3027 RMK A01 T00351048  RH  055%=      5-min Rain = 0
KPD1 200057Z 02006KT 03/M05 A3027 RMK A01 T00341048  RH  055%=      5-min Rain = 0
KPD1 200058Z 02006KT 03/M05 A3026 RMK A01 T00341048  RH  055%=      5-min Rain = 0
KPD1 200059Z 02006KT 03/M05 A3026 RMK A01 T00331048  RH  055%=      5-min Rain = 0
KPD1 200100Z 02005KT 03/M05 A3026 RMK A01 T00341047  RH  055%=      5-min Rain = 0
KPD1 200101Z 02005KT 03/M05 A3026 RMK A01 T00331048  RH  055%=      5-min Rain = 0
KPD1 200102Z 02004KT 03/M05 A3026 RMK A01 T00341047  RH  055%=      5-min Rain = 0
KPD1 200103Z 02004KT 03/M05 A3026 RMK A01 T00331048  RH  056%=      5-min Rain = 0
KPD1 200104Z 02003KT 03/M05 A3026 RMK A01 T00321048  RH  056%=      5-min Rain = 0
KPD1 200105Z 02004KT 03/M05 A3026 RMK A01 T00321048  RH  056%=      5-min Rain = 0
KPD1 200106Z 02004KT 03/M05 A3026 RMK A01 T00311048  RH  056%=      5-min Rain = 0
KPD1 200107Z 02003KT 03/M05 A3026 RMK A01 T00311048  RH  056%=      5-min Rain = 0
KPD1 200108Z 03003KT 03/M05 A3026 RMK A01 T00301048  RH  056%=      5-min Rain = 0
KPD1 200109Z 04001KT 03/M05 A3026 RMK A01 T00301048  RH  056%=      5-min Rain = 0
KPD1 200110Z 04002KT 03/M05 A3026 RMK A01 T00301048  RH  056%=      5-min Rain = 0
KPD1 200111Z 03002KT 03/M05 A3026 RMK A01 T00301049  RH  056%=      5-min Rain = 0
KPD1 200112Z 05002KT 03/M05 A3026 RMK A01 T00291048  RH  057%=      5-min Rain = 0
KPD1 200113Z 05003KT 03/M05 A3026 RMK A01 T00291048  RH  057%=      5-min Rain = 0
KPD1 200114Z 03003KT 03/M05 A3025 RMK A01 T00301047  RH  057%=      5-min Rain = 0
KPD1 200115Z 04003KT 03/M05 A3025 RMK A01 T00311047  RH  057%=      5-min Rain = 0
KPD1 200116Z 04003KT 03/M05 A3025 RMK A01 T00321047  RH  056%=      5-min Rain = 0
KPD1 200117Z 04003KT 03/M05 A3025 RMK A01 T00341047  RH  056%=      5-min Rain = 0
KPD1 200118Z 04003KT 03/M05 A3025 RMK A01 T00341047  RH  055%=      5-min Rain = 0
KPD1 200119Z 04003KT 04/M05 A3025 RMK A01 T00351047  RH  055%=      5-min Rain = 0
KPD1 200120Z 04003KT 04/M05 A3024 RMK A01 T00361047  RH  055%=      5-min Rain = 0
KPD1 200121Z 04004KT 04/M05 A3024 RMK A01 T00371048  RH  054%=      5-min Rain = 0
KPD1 200122Z 05004KT 04/M05 A3024 RMK A01 T00371048  RH  054%=      5-min Rain = 0
KPD1 200123Z 05003KT 04/M05 A3024 RMK A01 T00371049  RH  054%=      5-min Rain = 0
KPD1 200124Z 05004KT 04/M05 A3024 RMK A01 T00361049  RH  054%=      5-min Rain = 0
KPD1 200125Z 05004KT 04/M05 A3024 RMK A01 T00351049  RH  054%=      5-min Rain = 0
KPD1 200126Z 05004KT 04/M05 A3024 RMK A01 T00351049  RH  054%=      5-min Rain = 0
KPD1 200127Z 05004KT 03/M05 A3024 RMK A01 T00341049  RH  054%=      5-min Rain = 0
KPD1 200128Z 05004KT 03/M05 A3024 RMK A01 T00331049  RH  055%=      5-min Rain = 0
KPD1 200129Z 05004KT 03/M05 A3024 RMK A01 T00331049  RH  055%=      5-min Rain = 0
KPD1 200130Z 05003KT 03/M05 A3024 RMK A01 T00321049  RH  055%=      5-min Rain = 0
KPD1 200131Z 05003KT 03/M05 A3024 RMK A01 T00321049  RH  055%=      5-min Rain = 0
KPD1 200132Z 04004KT 03/M05 A3024 RMK A01 T00311049  RH  055%=      5-min Rain = 0
KPD1 200133Z 04003KT 03/M05 A3024 RMK A01 T00301049  RH  056%=      5-min Rain = 0
KPD1 200134Z 03002KT 03/M05 A3024 RMK A01 T00301049  RH  056%=      5-min Rain = 0
KPD1 200135Z 03003KT 03/M05 A3024 RMK A01 T00291049  RH  057%=      5-min Rain = 0
KPD1 200136Z 03003KT 03/M05 A3024 RMK A01 T00301048  RH  057%=      5-min Rain = 0
KPD1 200137Z 03003KT 03/M05 A3024 RMK A01 T00301048  RH  056%=      5-min Rain = 0
KPD1 200138Z 02003KT 03/M05 A3024 RMK A01 T00301049  RH  056%=      5-min Rain = 0
KPD1 200139Z 02003KT 03/M05 A3024 RMK A01 T00291049  RH  056%=      5-min Rain = 0
KPD1 200140Z 03004KT 03/M05 A3024 RMK A01 T00281050  RH  057%=      5-min Rain = 0
KPD1 200141Z 03004KT 03/M05 A3024 RMK A01 T00261051  RH  057%=      5-min Rain = 0
KPD1 200142Z 02004KT 03/M05 A3025 RMK A01 T00261051  RH  057%=      5-min Rain = 0
KPD1 200143Z 02004KT 02/M05 A3025 RMK A01 T00241051  RH  057%=      5-min Rain = 0
KPD1 200144Z 02004KT 02/M05 A3025 RMK A01 T00241050  RH  058%=      5-min Rain = 0
KPD1 200145Z 03004KT 03/M05 A3024 RMK A01 T00251050  RH  058%=      5-min Rain = 0
KPD1 200146Z 03004KT 03/M05 A3024 RMK A01 T00271049  RH  057%=      5-min Rain = 0
KPD1 200147Z 03004KT 03/M05 A3024 RMK A01 T00291048  RH  057%=      5-min Rain = 0
KPD1 200148Z 02002KT 03/M05 A3024 RMK A01 T00311048  RH  056%=      5-min Rain = 0
KPD1 200149Z 02002KT 03/M05 A3025 RMK A01 T00321048  RH  055%=      5-min Rain = 0
KPD1 200150Z 04002KT 03/M05 A3025 RMK A01 T00321049  RH  055%=      5-min Rain = 0
KPD1 200151Z 04002KT 03/M05 A3025 RMK A01 T00321049  RH  055%=      5-min Rain = 0
KPD1 200152Z 05001KT 03/M05 A3025 RMK A01 T00321049  RH  055%=      5-min Rain = 0
KPD1 200153Z 05000KT 03/M05 A3025 RMK A01 T00311051  RH  055%=      5-min Rain = 0
KPD1 200154Z 17001KT 03/M05 A3025 RMK A01 T00261054  RH  055%=      5-min Rain = 0
KPD1 200155Z 18001KT 02/M06 A3026 RMK A01 T00231055  RH  057%=      5-min Rain = 0
KPD1 200156Z 19002KT 02/M05 A3026 RMK A01 T00201054  RH  058%=      5-min Rain = 0
KPD1 200157Z 20002KT 02/M05 A3026 RMK A01 T00181054  RH  059%=      5-min Rain = 0
KPD1 200158Z 21002KT 02/M05 A3026 RMK A01 T00171053  RH  060%=      5-min Rain = 0
KPD1 200159Z 21001KT 02/M05 A3026 RMK A01 T00171053  RH  060%=      5-min Rain = 0
KPD1 200200Z 23001KT 02/M05 A3026 RMK A01 T00171053  RH  060%=      5-min Rain = 0
KPD1 200201Z 24001KT 02/M05 A3026 RMK A01 T00171053  RH  060%=      5-min Rain = 0
KPD1 200202Z 24002KT 02/M05 A3027 RMK A01 T00171052  RH  060%=      5-min Rain = 0
KPD1 200203Z 23002KT 02/M05 A3027 RMK A01 T00181052  RH  060%=      5-min Rain = 0
KPD1 200204Z 23003KT 02/M05 A3027 RMK A01 T00171052  RH  060%=      5-min Rain = 0
KPD1 200205Z 24003KT 02/M05 A3027 RMK A01 T00171052  RH  060%=      5-min Rain = 0
KPD1 200206Z 24002KT 02/M05 A3027 RMK A01 T00171053  RH  060%=      5-min Rain = 0
KPD1 200207Z 25000KT 02/M05 A3027 RMK A01 T00171052  RH  060%=      5-min Rain = 0
KPD1 200208Z 01001KT 02/M05 A3027 RMK A01 T00171051  RH  060%=      5-min Rain = 0
KPD1 200209Z 03002KT 02/M05 A3026 RMK A01 T00191050  RH  060%=      5-min Rain = 0
KPD1 200210Z 04003KT 02/M05 A3026 RMK A01 T00201050  RH  060%=      5-min Rain = 0
KPD1 200211Z 04004KT 02/M05 A3026 RMK A01 T00221050  RH  059%=      5-min Rain = 0
KPD1 200212Z 03005KT 02/M05 A3026 RMK A01 T00231050  RH  059%=      5-min Rain = 0
KPD1 200213Z 03005KT 02/M05 A3027 RMK A01 T00241050  RH  058%=      5-min Rain = 0
KPD1 200214Z 03005KT 02/M05 A3027 RMK A01 T00231050  RH  059%=      5-min Rain = 0
KPD1 200215Z 02004KT 02/M05 A3027 RMK A01 T00211050  RH  059%=      5-min Rain = 0
KPD1 200216Z 01004KT 02/M05 A3027 RMK A01 T00201050  RH  060%=      5-min Rain = 0
KPD1 200217Z 01003KT 02/M05 A3027 RMK A01 T00201050  RH  060%=      5-min Rain = 0
KPD1 200218Z 00002KT 02/M05 A3027 RMK A01 T00181050  RH  061%=      5-min Rain = 0
KPD1 200219Z 00001KT 02/M05 A3028 RMK A01 T00171050  RH  061%=      5-min Rain = 0
KPD1 200220Z 00000KT 02/M05 A3028 RMK A01 T00161051  RH  061%=      5-min Rain = 0
KPD1 200221Z 00000KT 02/M05 A3028 RMK A01 T00161051  RH  061%=      5-min Rain = 0
KPD1 200222Z 00000KT 01/M05 A3028 RMK A01 T00141052  RH  062%=      5-min Rain = 0
KPD1 200223Z 00000KT 01/M05 A3028 RMK A01 T00131052  RH  062%=      5-min Rain = 0
KPD1 200224Z 00000KT 01/M05 A3028 RMK A01 T00121052  RH  062%=      5-min Rain = 0
KPD1 200225Z 00000KT 01/M05 A3028 RMK A01 T00121052  RH  063%=      5-min Rain = 0
KPD1 200226Z 00000KT 01/M05 A3028 RMK A01 T00111052  RH  063%=      5-min Rain = 0
KPD1 200227Z 04001KT 01/M05 A3028 RMK A01 T00101052  RH  063%=      5-min Rain = 0
KPD1 200228Z 04002KT 01/M05 A3027 RMK A01 T00101051  RH  064%=      5-min Rain = 0
KPD1 200229Z 03002KT 01/M05 A3027 RMK A01 T00101051  RH  064%=      5-min Rain = 0
KPD1 200230Z 05002KT 01/M05 A3027 RMK A01 T00111051  RH  063%=      5-min Rain = 0
KPD1 200231Z 07002KT 01/M05 A3027 RMK A01 T00121051  RH  063%=      5-min Rain = 0
KPD1 200232Z 10002KT 01/M05 A3027 RMK A01 T00111051  RH  063%=      5-min Rain = 0
KPD1 200233Z 13002KT 01/M05 A3027 RMK A01 T00111052  RH  063%=      5-min Rain = 0
KPD1 200234Z 14003KT 01/M05 A3027 RMK A01 T00101052  RH  063%=      5-min Rain = 0
KPD1 200235Z 14003KT 01/M06 A3027 RMK A01 T00071055  RH  063%=      5-min Rain = 0
KPD1 200236Z 14003KT 01/M06 A3027 RMK A01 T00051056  RH  064%=      5-min Rain = 0
KPD1 200237Z 11003KT 00/M06 A3027 RMK A01 T00031056  RH  064%=      5-min Rain = 0
KPD1 200238Z 10003KT 00/M05 A3027 RMK A01 T00031054  RH  065%=      5-min Rain = 0
KPD1 200239Z 10002KT 00/M05 A3027 RMK A01 T00031054  RH  066%=      5-min Rain = 0
KPD1 200240Z 10002KT 00/M05 A3027 RMK A01 T00041053  RH  066%=      5-min Rain = 0
KPD1 200241Z 10001KT 01/M05 A3027 RMK A01 T00051052  RH  066%=      5-min Rain = 0
KPD1 200242Z 10002KT 01/M05 A3027 RMK A01 T00051051  RH  066%=      5-min Rain = 0
KPD1 200243Z 09002KT 01/M05 A3027 RMK A01 T00061051  RH  066%=      5-min Rain = 0
KPD1 200244Z 08002KT 01/M05 A3028 RMK A01 T00061051  RH  066%=      5-min Rain = 0
KPD1 200245Z 08002KT 01/M05 A3028 RMK A01 T00061051  RH  066%=      5-min Rain = 0
KPD1 200246Z 07001KT 01/M05 A3028 RMK A01 T00061051  RH  066%=      5-min Rain = 0
KPD1 200247Z 07000KT 01/M05 A3028 RMK A01 T00081050  RH  065%=      5-min Rain = 0
KPD1 200248Z 00000KT 01/M05 A3028 RMK A01 T00071052  RH  065%=      5-min Rain = 0
KPD1 200249Z 00000KT 01/M05 A3028 RMK A01 T00051054  RH  065%=      5-min Rain = 0
KPD1 200250Z 00000KT 00/M05 A3027 RMK A01 T00041053  RH  065%=      5-min Rain = 0
KPD1 200251Z 00000KT 00/M05 A3027 RMK A01 T00041051  RH  066%=      5-min Rain = 0
KPD1 200252Z 10001KT 01/M05 A3027 RMK A01 T00061050  RH  066%=      5-min Rain = 0
KPD1 200253Z 09002KT 01/M05 A3026 RMK A01 T00081049  RH  066%=      5-min Rain = 0
KPD1 200254Z 09002KT 01/M05 A3026 RMK A01 T00091049  RH  065%=      5-min Rain = 0
KPD1 200255Z 07002KT 01/M05 A3026 RMK A01 T00111049  RH  064%=      5-min Rain = 0
KPD1 200256Z 07003KT 01/M05 A3026 RMK A01 T00121049  RH  064%=      5-min Rain = 0
KPD1 200257Z 05003KT 01/M05 A3027 RMK A01 T00131049  RH  063%=      5-min Rain = 0
KPD1 200258Z 04003KT 01/M05 A3027 RMK A01 T00141050  RH  063%=      5-min Rain = 0
KPD1 200259Z 04003KT 02/M05 A3027 RMK A01 T00151050  RH  062%=      5-min Rain = 0
KPD1 200300Z 04002KT 02/M05 A3027 RMK A01 T00151050  RH  062%=      5-min Rain = 0
KPD1 200301Z 04002KT 02/M05 A3027 RMK A01 T00151049  RH  062%=      5-min Rain = 0
KPD1 200302Z 05002KT 02/M05 A3027 RMK A01 T00151050  RH  062%=      5-min Rain = 0
KPD1 200303Z 05002KT 01/M05 A3027 RMK A01 T00141050  RH  062%=      5-min Rain = 0
KPD1 200304Z 07003KT 01/M05 A3026 RMK A01 T00141050  RH  063%=      5-min Rain = 0
KPD1 200305Z 08003KT 01/M05 A3026 RMK A01 T00131050  RH  063%=      5-min Rain = 0
KPD1 200306Z 10004KT 01/M05 A3026 RMK A01 T00111051  RH  063%=      5-min Rain = 0
KPD1 200307Z 10003KT 01/M05 A3026 RMK A01 T00101051  RH  064%=      5-min Rain = 0
KPD1 200308Z 10003KT 01/M05 A3026 RMK A01 T00091051  RH  064%=      5-min Rain = 0
KPD1 200309Z 11002KT 01/M05 A3026 RMK A01 T00091051  RH  064%=      5-min Rain = 0
KPD1 200310Z 13002KT 01/M05 A3026 RMK A01 T00071053  RH  064%=      5-min Rain = 0
KPD1 200311Z 14002KT 00/M05 A3026 RMK A01 T00041054  RH  065%=      5-min Rain = 0
KPD1 200312Z 13002KT 00/M05 A3026 RMK A01 T00031054  RH  066%=      5-min Rain = 0
KPD1 200313Z 12001KT 00/M05 A3026 RMK A01 T00021054  RH  066%=      5-min Rain = 0
KPD1 200314Z 13001KT 00/M05 A3026 RMK A01 T00021053  RH  066%=      5-min Rain = 0
KPD1 200315Z 13002KT 00/M05 A3026 RMK A01 T00021053  RH  067%=      5-min Rain = 0
KPD1 200316Z 12000KT 00/M05 A3026 RMK A01 T00021053  RH  067%=      5-min Rain = 0
KPD1 200317Z 00000KT 00/05 A3026 RMK A01 T00000-54  RH  067%=      5-min Rain = 0
KPD1 200318Z 10000KT M00/M05 A3026 RMK A01 T10011054  RH  067%=      5-min Rain = 0
KPD1 200319Z 11001KT M00/M05 A3026 RMK A01 T10011053  RH  068%=      5-min Rain = 0
KPD1 200320Z 11002KT 00/05 A3026 RMK A01 T00-00-53  RH  068%=      5-min Rain = 0
KPD1 200321Z 11003KT 00/05 A3026 RMK A01 T00-00-52  RH  068%=      5-min Rain = 0
KPD1 200322Z 11003KT 00/M05 A3026 RMK A01 T00021050  RH  068%=      5-min Rain = 0
KPD1 200323Z 10003KT 01/M05 A3026 RMK A01 T00051049  RH  067%=      5-min Rain = 0
KPD1 200324Z 10004KT 01/M05 A3026 RMK A01 T00081048  RH  066%=      5-min Rain = 0
KPD1 200325Z 10004KT 01/M05 A3026 RMK A01 T00091048  RH  066%=      5-min Rain = 0
KPD1 200326Z 12003KT 01/M05 A3025 RMK A01 T00101049  RH  065%=      5-min Rain = 0
KPD1 200327Z 12004KT 01/M05 A3025 RMK A01 T00101049  RH  065%=      5-min Rain = 0
KPD1 200328Z 13003KT 01/M05 A3025 RMK A01 T00101049  RH  065%=      5-min Rain = 0
KPD1 200329Z 13003KT 01/M05 A3026 RMK A01 T00101049  RH  065%=      5-min Rain = 0
KPD1 200330Z 12003KT 01/M05 A3026 RMK A01 T00111049  RH  065%=      5-min Rain = 0
KPD1 200331Z 11002KT 01/M05 A3026 RMK A01 T00111048  RH  065%=      5-min Rain = 0
KPD1 200332Z 11003KT 01/M05 A3026 RMK A01 T00121048  RH  064%=      5-min Rain = 0
KPD1 200333Z 11003KT 01/M05 A3026 RMK A01 T00121049  RH  064%=      5-min Rain = 0
KPD1 200334Z 11003KT 01/M05 A3026 RMK A01 T00121049  RH  064%=      5-min Rain = 0
KPD1 200335Z 10002KT 01/M05 A3026 RMK A01 T00131049  RH  064%=      5-min Rain = 0
KPD1 200336Z 11003KT 01/M05 A3026 RMK A01 T00131049  RH  063%=      5-min Rain = 0
KPD1 200337Z 12003KT 01/M05 A3026 RMK A01 T00131049  RH  063%=      5-min Rain = 0
KPD1 200338Z 13003KT 01/M05 A3026 RMK A01 T00131049  RH  063%=      5-min Rain = 0
KPD1 200339Z 14003KT 01/M05 A3026 RMK A01 T00131049  RH  063%=      5-min Rain = 0
KPD1 200340Z 14002KT 01/M05 A3027 RMK A01 T00121050  RH  063%=      5-min Rain = 0
KPD1 200341Z 14002KT 01/M05 A3027 RMK A01 T00101051  RH  064%=      5-min Rain = 0
KPD1 200342Z 14003KT 01/M05 A3026 RMK A01 T00091051  RH  064%=      5-min Rain = 0
KPD1 200343Z 14003KT 01/M05 A3026 RMK A01 T00081051  RH  065%=      5-min Rain = 0
KPD1 200344Z 13003KT 01/M05 A3025 RMK A01 T00071051  RH  065%=      5-min Rain = 0
KPD1 200345Z 14003KT 01/M05 A3025 RMK A01 T00061051  RH  065%=      5-min Rain = 0
KPD1 200346Z 13004KT 01/M05 A3025 RMK A01 T00061051  RH  066%=      5-min Rain = 0
KPD1 200347Z 13004KT 01/M05 A3024 RMK A01 T00061050  RH  066%=      5-min Rain = 0
KPD1 200348Z 14004KT 01/M05 A3024 RMK A01 T00061050  RH  066%=      5-min Rain = 0
KPD1 200349Z 14004KT 01/M05 A3024 RMK A01 T00071050  RH  066%=      5-min Rain = 0
KPD1 200350Z 14003KT 01/M05 A3024 RMK A01 T00081050  RH  066%=      5-min Rain = 0
KPD1 200351Z 14003KT 01/M05 A3025 RMK A01 T00081050  RH  065%=      5-min Rain = 0
KPD1 200352Z 14002KT 01/M05 A3025 RMK A01 T00081050  RH  065%=      5-min Rain = 0
KPD1 200353Z 14002KT 01/M05 A3025 RMK A01 T00081050  RH  065%=      5-min Rain = 0
KPD1 200354Z 15003KT 01/M05 A3025 RMK A01 T00081050  RH  065%=      5-min Rain = 0
KPD1 200355Z 15002KT 01/M05 A3025 RMK A01 T00081051  RH  065%=      5-min Rain = 0
KPD1 200356Z 16002KT 01/M05 A3025 RMK A01 T00071051  RH  065%=      5-min Rain = 0
KPD1 200357Z 17003KT 01/M05 A3025 RMK A01 T00061051  RH  065%=      5-min Rain = 0
KPD1 200358Z 18003KT 01/M05 A3026 RMK A01 T00061051  RH  066%=      5-min Rain = 0
KPD1 200359Z 19003KT 01/M05 A3026 RMK A01 T00051052  RH  066%=      5-min Rain = 0
KPD1 200400Z 18003KT 00/M05 A3026 RMK A01 T00041052  RH  066%=      5-min Rain = 0
KPD1 200401Z 18003KT 00/M05 A3025 RMK A01 T00041051  RH  067%=      5-min Rain = 0
KPD1 200402Z 18002KT 00/M05 A3025 RMK A01 T00031051  RH  067%=      5-min Rain = 0
KPD1 200403Z 18002KT 00/M05 A3025 RMK A01 T00031051  RH  067%=      5-min Rain = 0
KPD1 200404Z 18002KT 00/M05 A3025 RMK A01 T00031051  RH  067%=      5-min Rain = 0
KPD1 200405Z 18003KT 00/M05 A3025 RMK A01 T00031051  RH  067%=      5-min Rain = 0
KPD1 200406Z 19004KT 00/M05 A3025 RMK A01 T00041050  RH  067%=      5-min Rain = 0
KPD1 200407Z 19004KT 00/M05 A3025 RMK A01 T00041052  RH  066%=      5-min Rain = 0
KPD1 200408Z 18004KT 00/M05 A3025 RMK A01 T00031053  RH  066%=      5-min Rain = 0
KPD1 200409Z 18004KT 00/M05 A3025 RMK A01 T00021052  RH  067%=      5-min Rain = 0
KPD1 200410Z 18003KT 00/M05 A3025 RMK A01 T00021052  RH  067%=      5-min Rain = 0
KPD1 200411Z 18004KT 00/M05 A3024 RMK A01 T00021052  RH  067%=      5-min Rain = 0
KPD1 200412Z 18004KT 00/M05 A3024 RMK A01 T00021052  RH  067%=      5-min Rain = 0
KPD1 200413Z 19004KT 00/M05 A3025 RMK A01 T00011053  RH  067%=      5-min Rain = 0
KPD1 200414Z 20004KT 00/M05 A3025 RMK A01 T00011053  RH  067%=      5-min Rain = 0
KPD1 200415Z 20004KT 00/05 A3025 RMK A01 T00-00-54  RH  067%=      5-min Rain = 0
KPD1 200416Z 20005KT M00/M05 A3025 RMK A01 T10011053  RH  068%=      5-min Rain = 0
KPD1 200417Z 20005KT M00/M05 A3025 RMK A01 T10011054  RH  068%=      5-min Rain = 0
KPD1 200418Z 20005KT M00/M05 A3025 RMK A01 T10021054  RH  068%=      5-min Rain = 0
KPD1 200419Z 20005KT M00/M05 A3025 RMK A01 T10021054  RH  068%=      5-min Rain = 0
KPD1 200420Z 20004KT M00/M06 A3025 RMK A01 T10031055  RH  068%=      5-min Rain = 0
KPD1 200421Z 20004KT M00/M05 A3025 RMK A01 T10041054  RH  069%=      5-min Rain = 0
KPD1 200422Z 19003KT M00/M05 A3025 RMK A01 T10041054  RH  069%=      5-min Rain = 0
KPD1 200423Z 18003KT M00/M05 A3025 RMK A01 T10041053  RH  070%=      5-min Rain = 0
KPD1 200424Z 18003KT M00/M05 A3024 RMK A01 T10041053  RH  070%=      5-min Rain = 0
KPD1 200425Z 18004KT M00/M05 A3025 RMK A01 T10041053  RH  070%=      5-min Rain = 0
KPD1 200426Z 18003KT M00/M05 A3025 RMK A01 T10041053  RH  070%=      5-min Rain = 0
KPD1 200427Z 18003KT M00/M05 A3025 RMK A01 T10041052  RH  070%=      5-min Rain = 0
KPD1 200428Z 18003KT M00/M05 A3025 RMK A01 T10041053  RH  070%=      5-min Rain = 0
KPD1 200429Z 18003KT M00/M05 A3025 RMK A01 T10041052  RH  070%=      5-min Rain = 0
KPD1 200430Z 18003KT M00/M05 A3025 RMK A01 T10031052  RH  070%=      5-min Rain = 0
KPD1 200431Z 18003KT M00/M05 A3025 RMK A01 T10021051  RH  070%=      5-min Rain = 0
KPD1 200432Z 18003KT M00/M05 A3025 RMK A01 T10021052  RH  069%=      5-min Rain = 0
KPD1 200433Z 18003KT M00/M05 A3025 RMK A01 T10011051  RH  069%=      5-min Rain = 0
KPD1 200434Z 17003KT 00/05 A3025 RMK A01 T00-00-52  RH  068%=      5-min Rain = 0
KPD1 200435Z 17003KT 00/05 A3025 RMK A01 T00-00-52  RH  068%=      5-min Rain = 0
KPD1 200436Z 16003KT 00/05 A3025 RMK A01 T00000-51  RH  068%=      5-min Rain = 0
KPD1 200437Z 16004KT 00/05 A3025 RMK A01 T00000-52  RH  068%=      5-min Rain = 0
KPD1 200438Z 16004KT 00/M05 A3025 RMK A01 T00011051  RH  068%=      5-min Rain = 0
KPD1 200439Z 16004KT 00/M05 A3025 RMK A01 T00011051  RH  068%=      5-min Rain = 0
KPD1 200440Z 16003KT 00/M05 A3025 RMK A01 T00021052  RH  067%=      5-min Rain = 0
KPD1 200441Z 15003KT 00/M05 A3025 RMK A01 T00021052  RH  067%=      5-min Rain = 0
KPD1 200442Z 15002KT 00/M05 A3025 RMK A01 T00031052  RH  067%=      5-min Rain = 0
KPD1 200443Z 16002KT 00/M05 A3025 RMK A01 T00031052  RH  066%=      5-min Rain = 0
KPD1 200444Z 17003KT 00/M05 A3026 RMK A01 T00031052  RH  066%=      5-min Rain = 0
KPD1 200445Z 17003KT 00/M05 A3026 RMK A01 T00031052  RH  066%=      5-min Rain = 0
KPD1 200446Z 17003KT 00/M05 A3026 RMK A01 T00021053  RH  066%=      5-min Rain = 0
KPD1 200447Z 17003KT 00/M05 A3026 RMK A01 T00021053  RH  067%=      5-min Rain = 0
KPD1 200448Z 17003KT 00/M05 A3026 RMK A01 T00021053  RH  067%=      5-min Rain = 0
KPD1 200449Z 17003KT 00/M05 A3026 RMK A01 T00011053  RH  067%=      5-min Rain = 0
KPD1 200450Z 17003KT 00/M05 A3026 RMK A01 T00021053  RH  067%=      5-min Rain = 0
KPD1 200451Z 17003KT 00/M05 A3026 RMK A01 T00021053  RH  067%=      5-min Rain = 0
KPD1 200452Z 17004KT 00/M05 A3026 RMK A01 T00011053  RH  067%=      5-min Rain = 0
KPD1 200453Z 17004KT 00/M05 A3026 RMK A01 T00011053  RH  067%=      5-min Rain = 0
KPD1 200454Z 17004KT 00/M05 A3026 RMK A01 T00011053  RH  067%=      5-min Rain = 0
KPD1 200455Z 17004KT 00/05 A3026 RMK A01 T00000-54  RH  067%=      5-min Rain = 0
KPD1 200456Z 18004KT 00/05 A3026 RMK A01 T00-00-54  RH  067%=      5-min Rain = 0
KPD1 200457Z 19003KT M00/M06 A3026 RMK A01 T10011055  RH  067%=      5-min Rain = 0
KPD1 200458Z 20004KT M00/M05 A3026 RMK A01 T10011054  RH  068%=      5-min Rain = 0
KPD1 200459Z 20004KT M00/M05 A3026 RMK A01 T10011054  RH  068%=      5-min Rain = 0
KPD1 200500Z 20005KT M00/M05 A3026 RMK A01 T10011054  RH  067%=      5-min Rain = 0
KPD1 200501Z 20005KT M00/M06 A3026 RMK A01 T10011055  RH  067%=      5-min Rain = 0
KPD1 200502Z 20005KT M00/M06 A3026 RMK A01 T10021055  RH  067%=      5-min Rain = 0
KPD1 200503Z 20005KT M00/M06 A3026 RMK A01 T10031056  RH  067%=      5-min Rain = 0
KPD1 200504Z 20005KT M00/M06 A3026 RMK A01 T10041057  RH  068%=      5-min Rain = 0
KPD1 200505Z 20004KT M01/M06 A3026 RMK A01 T10051057  RH  068%=      5-min Rain = 0
KPD1 200506Z 20004KT M01/M06 A3027 RMK A01 T10061057  RH  068%=      5-min Rain = 0
KPD1 200507Z 20004KT M01/M06 A3027 RMK A01 T10061057  RH  068%=      5-min Rain = 0
KPD1 200508Z 19003KT M01/M06 A3027 RMK A01 T10061056  RH  069%=      5-min Rain = 0
KPD1 200509Z 19003KT M01/M06 A3027 RMK A01 T10071057  RH  069%=      5-min Rain = 0
KPD1 200510Z 19003KT M01/M06 A3027 RMK A01 T10071056  RH  069%=      5-min Rain = 0
KPD1 200511Z 19003KT M01/M06 A3027 RMK A01 T10071056  RH  070%=      5-min Rain = 0
KPD1 200512Z 19003KT M01/M06 A3027 RMK A01 T10071055  RH  070%=      5-min Rain = 0
KPD1 200513Z 20003KT M01/M06 A3027 RMK A01 T10071055  RH  070%=      5-min Rain = 0
KPD1 200514Z 19003KT M01/M05 A3027 RMK A01 T10061054  RH  070%=      5-min Rain = 0
KPD1 200515Z 19003KT M01/M05 A3026 RMK A01 T10061054  RH  070%=      5-min Rain = 0
KPD1 200516Z 18003KT M01/M05 A3026 RMK A01 T10061054  RH  070%=      5-min Rain = 0
KPD1 200517Z 18003KT M00/M05 A3026 RMK A01 T10041053  RH  070%=      5-min Rain = 0
KPD1 200518Z 19003KT M00/M05 A3026 RMK A01 T10041053  RH  069%=      5-min Rain = 0
KPD1 200519Z 19003KT M00/M05 A3026 RMK A01 T10041053  RH  069%=      5-min Rain = 0
KPD1 200520Z 18003KT M00/M05 A3026 RMK A01 T10041054  RH  069%=      5-min Rain = 0
KPD1 200521Z 18003KT M00/M05 A3026 RMK A01 T10041054  RH  069%=      5-min Rain = 0
KPD1 200522Z 19003KT M00/M05 A3027 RMK A01 T10041054  RH  069%=      5-min Rain = 0
KPD1 200523Z 19003KT M00/M05 A3027 RMK A01 T10041054  RH  069%=      5-min Rain = 0
KPD1 200524Z 19002KT M01/M06 A3027 RMK A01 T10051055  RH  069%=      5-min Rain = 0
KPD1 200525Z 19002KT M01/M06 A3027 RMK A01 T10061055  RH  069%=      5-min Rain = 0
KPD1 200526Z 19003KT M01/M06 A3026 RMK A01 T10061055  RH  070%=      5-min Rain = 0
KPD1 200527Z 19003KT M01/M06 A3026 RMK A01 T10061055  RH  070%=      5-min Rain = 0
KPD1 200528Z 20003KT M01/M06 A3026 RMK A01 T10071055  RH  070%=      5-min Rain = 0
KPD1 200529Z 22003KT M01/M06 A3027 RMK A01 T10081056  RH  070%=      5-min Rain = 0
KPD1 200530Z 21003KT M01/M06 A3027 RMK A01 T10091057  RH  070%=      5-min Rain = 0
KPD1 200531Z 21002KT M01/M06 A3027 RMK A01 T10101057  RH  070%=      5-min Rain = 0
KPD1 200532Z 20002KT M01/M06 A3027 RMK A01 T10101057  RH  070%=      5-min Rain = 0
KPD1 200533Z 19002KT M01/M06 A3027 RMK A01 T10101057  RH  070%=      5-min Rain = 0
KPD1 200534Z 19002KT M01/M06 A3027 RMK A01 T10111057  RH  071%=      5-min Rain = 0
KPD1 200535Z 21002KT M01/M06 A3027 RMK A01 T10111058  RH  071%=      5-min Rain = 0
KPD1 200536Z 21002KT M01/M06 A3027 RMK A01 T10121058  RH  071%=      5-min Rain = 0
KPD1 200537Z 21002KT M01/M06 A3028 RMK A01 T10131058  RH  071%=      5-min Rain = 0
KPD1 200538Z 20002KT M01/M06 A3028 RMK A01 T10131059  RH  071%=      5-min Rain = 0
KPD1 200539Z 20002KT M01/M06 A3028 RMK A01 T10131058  RH  072%=      5-min Rain = 0
KPD1 200540Z 20003KT M01/M06 A3028 RMK A01 T10131058  RH  072%=      5-min Rain = 0
KPD1 200541Z 21003KT M01/M06 A3028 RMK A01 T10141058  RH  072%=      5-min Rain = 0
KPD1 200542Z 21003KT M01/M06 A3029 RMK A01 T10141058  RH  072%=      5-min Rain = 0
KPD1 200543Z 21003KT M01/M06 A3028 RMK A01 T10141058  RH  072%=      5-min Rain = 0
KPD1 200544Z 20002KT M01/M06 A3028 RMK A01 T10141058  RH  072%=      5-min Rain = 0
KPD1 200545Z 19002KT M01/M06 A3028 RMK A01 T10141058  RH  072%=      5-min Rain = 0
KPD1 200546Z 17002KT M01/M06 A3027 RMK A01 T10131058  RH  072%=      5-min Rain = 0
KPD1 200547Z 16002KT M01/M06 A3027 RMK A01 T10131058  RH  072%=      5-min Rain = 0
KPD1 200548Z 15002KT M01/M06 A3027 RMK A01 T10141058  RH  072%=      5-min Rain = 0
KPD1 200549Z 16002KT M01/M06 A3027 RMK A01 T10131058  RH  072%=      5-min Rain = 0
KPD1 200550Z 16002KT M01/M06 A3027 RMK A01 T10141058  RH  072%=      5-min Rain = 0
KPD1 200551Z 16002KT M01/M06 A3027 RMK A01 T10141058  RH  072%=      5-min Rain = 0
KPD1 200552Z 17002KT M01/M06 A3028 RMK A01 T10141059  RH  072%=      5-min Rain = 0
KPD1 200553Z 18002KT M02/M06 A3028 RMK A01 T10151060  RH  072%=      5-min Rain = 0
KPD1 200554Z 18003KT M02/M06 A3028 RMK A01 T10171060  RH  072%=      5-min Rain = 0
KPD1 200555Z 18003KT M02/M06 A3027 RMK A01 T10181061  RH  072%=      5-min Rain = 0
KPD1 200556Z 19003KT M02/M06 A3027 RMK A01 T10181060  RH  073%=      5-min Rain = 0
KPD1 200557Z 19003KT M02/M06 A3027 RMK A01 T10181059  RH  073%=      5-min Rain = 0
KPD1 200558Z 19003KT M02/M06 A3027 RMK A01 T10181059  RH  073%=      5-min Rain = 0
KPD1 200559Z 19004KT M02/M06 A3027 RMK A01 T10181059  RH  073%=      5-min Rain = 0

Page generated in 0.1397 seconds.